Add date Part number Description Manufacture PDF
11-08-2014 L01Z050S05 Hall Effect Current Sensors L01Z*** Tamura L01Z050S05 datasheet
11-08-2014 L01Z100S05 Hall Effect Current Sensors L01Z*** Tamura L01Z100S05 datasheet
11-08-2014 L01Z150S05 Hall Effect Current Sensors L01Z*** Tamura L01Z150S05 datasheet
11-08-2014 L01Z200S05 Hall Effect Current Sensors L01Z*** Tamura L01Z200S05 datasheet
11-08-2014 L01Z300S05 Hall Effect Current Sensors L01Z*** Tamura L01Z300S05 datasheet
11-08-2014 L01Z400S05 Hall Effect Current Sensors L01Z*** Tamura L01Z400S05 datasheet
11-08-2014 L01Z500S05 Hall Effect Current Sensors L01Z*** Tamura L01Z500S05 datasheet
11-08-2014 L01Z600S05 Hall Effect Current Sensors L01Z*** Tamura L01Z600S05 datasheet
11-08-2014 L03S050D15 Hall Effect Current Sensors L03S*** Tamura L03S050D15 datasheet
11-08-2014 L03S100D15 Hall Effect Current Sensors L03S*** Tamura L03S100D15 datasheet
11-08-2014 L03S200D15 Hall Effect Current Sensors L03S*** Tamura L03S200D15 datasheet
11-08-2014 L03S300D15 Hall Effect Current Sensors L03S*** Tamura L03S300D15 datasheet
11-08-2014 L03S400D15 Hall Effect Current Sensors L03S*** Tamura L03S400D15 datasheet
11-08-2014 L03S500D15 Hall Effect Current Sensors L03S*** Tamura L03S500D15 datasheet
11-08-2014 L03S600D15 Hall Effect Current Sensors L03S*** Tamura L03S600D15 datasheet
11-08-2014 L06P300S05 Hall Effect Current Sensors L06P*** Tamura L06P300S05 datasheet
11-08-2014 L06P400S05 Hall Effect Current Sensors L06P*** Tamura L06P400S05 datasheet
11-08-2014 L06P500S05 Hall Effect Current Sensors L06P*** Tamura L06P500S05 datasheet
11-08-2014 L06P600S05 Hall Effect Current Sensors L06P*** Tamura L06P600S05 datasheet
11-08-2014 L06P700S05 Hall Effect Current Sensors L06P*** Tamura L06P700S05 datasheet
11-08-2014 L06P800S05 Hall Effect Current Sensors L06P*** Tamura L06P800S05 datasheet
11-08-2014 L07P005S05 Hall Effect Current Sensors L07P*** Tamura L07P005S05 datasheet
11-08-2014 L07P007S05 Hall Effect Current Sensors L07P*** Tamura L07P007S05 datasheet
11-08-2014 L07P010S05 Hall Effect Current Sensors L07P*** Tamura L07P010S05 datasheet
11-08-2014 L07P015S05 Hall Effect Current Sensors L07P*** Tamura L07P015S05 datasheet
11-08-2014 L07P020S05 Hall Effect Current Sensors L07P*** Tamura L07P020S05 datasheet
11-08-2014 L07P025S05 Hall Effect Current Sensors L07P*** Tamura L07P025S05 datasheet
11-08-2014 L07P030S05 Hall Effect Current Sensors L07P*** Tamura L07P030S05 datasheet
11-08-2014 L08P050D15 Hall Effect Current Sensors L08P*** Tamura L08P050D15 datasheet
11-08-2014 L08P100D15 Hall Effect Current Sensors L08P*** Tamura L08P100D15 datasheet
11-08-2014 L08P150D15 Hall Effect Current Sensors L08P*** Tamura L08P150D15 datasheet
11-08-2014 L08P200D15 Hall Effect Current Sensors L08P*** Tamura L08P200D15 datasheet
11-08-2014 L18P003D15 Hall Effect Current Sensors L18P*** Tamura L18P003D15 datasheet
11-08-2014 L18P005D15 Hall Effect Current Sensors L18P*** Tamura L18P005D15 datasheet
11-08-2014 L18P010D15 Hall Effect Current Sensors L18P*** Tamura L18P010D15 datasheet
11-08-2014 L18P015D15 Hall Effect Current Sensors L18P*** Tamura L18P015D15 datasheet
11-08-2014 L18P020D15 Hall Effect Current Sensors L18P*** Tamura L18P020D15 datasheet
11-08-2014 L18P025D15 Hall Effect Current Sensors L18P*** Tamura L18P025D15 datasheet
11-08-2014 L18P030D15 Hall Effect Current Sensors L18P*** Tamura L18P030D15 datasheet
11-08-2014 L18P040D15 Hall Effect Current Sensors L18P*** Tamura L18P040D15 datasheet
11-08-2014 L18P050D15 Hall Effect Current Sensors L18P*** Tamura L18P050D15 datasheet
11-08-2014 L18P060D15 Hall Effect Current Sensors L18P*** Tamura L18P060D15 datasheet
11-08-2014 S20S200D15M1 Hall Effect Current Sensors S20S200 Tamura S20S200D15M1 datasheet
11-08-2014 S22P006S05 Hall Effect Current Sensors S22P Se Tamura S22P006S05 datasheet
11-08-2014 S22P015S05 Hall Effect Current Sensors S22P Se Tamura S22P015S05 datasheet
11-08-2014 S22P025S05 Hall Effect Current Sensors S22P Se Tamura S22P025S05 datasheet
11-08-2014 S23P50D15 Hall Effect Current Sensors S23P*** Tamura S23P50D15 datasheet
11-08-2014 S23P100D15 Hall Effect Current Sensors S23P*** Tamura S23P100D15 datasheet
11-08-2014 SHT20S Datasheet SHT20S Humidity and Tempe Sensirion SHT20S datasheet
11-08-2014 SHT21 Datasheet SHT21 Humidity and Temper Sensirion SHT21 datasheet
11-08-2014 SHT21P Datasheet SHT21P Humidity and Tempe Sensirion SHT21P datasheet
11-08-2014 SHT21S Datasheet SHT21S Humidity and Tempe Sensirion SHT21S datasheet
11-08-2014 SHT25 Datasheet SHT25 Humidity and Temper Sensirion SHT25 datasheet
11-08-2014 SHT71 Datasheet SHT7x (SHT71, SHT75) Humi Sensirion SHT71 datasheet
11-08-2014 SHT75 Datasheet SHT7x (SHT71, SHT75) Humi Sensirion SHT75 datasheet
11-08-2014 SHTC1 Data Sheet SHTC1 Humidity and Tempe Sensirion SHTC1 datasheet
11-08-2014 SHT20P Datasheet SHT20P Humidity and Tempe Sensirion SHT20P datasheet
11-08-2014 SHT20 Datasheet SHT20 Humidity and Temper Sensirion SHT20 datasheet
11-08-2014 STS21 Datasheet STS21 Temperature Sensor Sensirion STS21 datasheet
11-08-2014 STSC1 Data Sheet STSC1 Temperature Sensor Sensirion STSC1 datasheet
11-08-2014 VM800C VM800C Datasheet Version 1.0 Docume FTDI VM800C datasheet
11-08-2014 VM800B VM800B Datasheet Version Draft Docu FTDI VM800B datasheet
11-08-2014 TTL-232R-PCB Future Technology Devices Internati FTDI TTL-232R-PCB datasheet
11-08-2014 VDIP1 Future Technology Devices Internati FTDI VDIP1 datasheet
11-08-2014 VDIP2 ™ Future Technology Devices Inte FTDI VDIP2 datasheet
11-08-2014 DLP-IO8-G DLP-IO8-G *LEAD-FREE* USB-BASED 8- DLP Design DLP-IO8-G datasheet
11-08-2014 UB232R Future Technology Devices Internati FTDI UB232R datasheet
11-08-2014 VNC1L-1A Document Reference No.: FT_000030 V FTDI VNC1L-1A datasheet
11-08-2014 FT4232H Document No.: FT_000060 FT4232H QUA FTDI FT4232H datasheet
11-08-2014 VNC2-64L1A Document No.: FT_000138 VINCULUM-II FTDI VNC2-64L1A datasheet
11-08-2014 VNC2-64Q1A Document No.: FT_000138 VINCULUM-II FTDI VNC2-64Q1A datasheet
11-08-2014 VNC2-48L1A Document No.: FT_000138 VINCULUM-II FTDI VNC2-48L1A datasheet
11-08-2014 VNC2-48Q1A Document No.: FT_000138 VINCULUM-II FTDI VNC2-48Q1A datasheet
11-08-2014 VNC2-32L1A Document No.: FT_000138 VINCULUM-II FTDI VNC2-32L1A datasheet
11-08-2014 VNC2-32Q1A Document No.: FT_000138 VINCULUM-II FTDI VNC2-32Q1A datasheet
11-08-2014 FT4232HL Document No.: FT_000060 FT4232H QUA FTDI FT4232HL datasheet
11-08-2014 FT4232HQ Document No.: FT_000060 FT4232H QUA FTDI FT4232HQ datasheet
11-08-2014 FT800 Document No.: FT_000792 FT800 Embed FTDI FT800 datasheet
11-08-2014 EVAL232R ™ Future Technology Devices Inte FTDI EVAL232R datasheet
11-08-2014 PL-2303X PL-2303X Edition USB to Serial Brid Prolific PL-2303X datasheet
11-08-2014 LP124 LP124 LP2902 LP324 Micropower Quad National Semiconductor LP124 datasheet
11-08-2014 EEEHA0J220R Aluminum Electrolytic Capacitors/ H Panasonic EEEHA0J220R datasheet
11-08-2014 EEEHA0J330WR Aluminum Electrolytic Capacitors/ H Panasonic EEEHA0J330WR datasheet
11-08-2014 EEEHA0J470WR Aluminum Electrolytic Capacitors/ H Panasonic EEEHA0J470WR datasheet
11-08-2014 EEEHA0J470R Aluminum Electrolytic Capacitors/ H Panasonic EEEHA0J470R datasheet
11-08-2014 EEEHA0J101WR Aluminum Electrolytic Capacitors/ H Panasonic EEEHA0J101WR datasheet
11-08-2014 EEEHA0J101P Aluminum Electrolytic Capacitors/ H Panasonic EEEHA0J101P datasheet
11-08-2014 EEEHA0J221WP Aluminum Electrolytic Capacitors/ H Panasonic EEEHA0J221WP datasheet
11-08-2014 EEEHA0J331XP Aluminum Electrolytic Capacitors/ H Panasonic EEEHA0J331XP datasheet
11-08-2014 EEEHA0J331P Aluminum Electrolytic Capacitors/ H Panasonic EEEHA0J331P datasheet
11-08-2014 EEEHA0J471UP Aluminum Electrolytic Capacitors/ H Panasonic EEEHA0J471UP datasheet
11-08-2014 EEEHA0J102UP Aluminum Electrolytic Capacitors/ H Panasonic EEEHA0J102UP datasheet
11-08-2014 EEEHA0J102P Aluminum Electrolytic Capacitors/ H Panasonic EEEHA0J102P datasheet
11-08-2014 EEEHA0J152P Aluminum Electrolytic Capacitors/ H Panasonic EEEHA0J152P datasheet
11-08-2014 EEEHA1A220WR Aluminum Electrolytic Capacitors/ H Panasonic EEEHA1A220WR datasheet
11-08-2014 EEEHA1A330WR Aluminum Electrolytic Capacitors/ H Panasonic EEEHA1A330WR datasheet
11-08-2014 EEEHA1A330R Aluminum Electrolytic Capacitors/ H Panasonic EEEHA1A330R datasheet
11-08-2014 EEEHA1A470WR Aluminum Electrolytic Capacitors/ H Panasonic EEEHA1A470WR datasheet
11-08-2014 EEEHA1A101WP Aluminum Electrolytic Capacitors/ H Panasonic EEEHA1A101WP datasheet
11-08-2014 EEEHA1A101P Aluminum Electrolytic Capacitors/ H Panasonic EEEHA1A101P datasheet
11-08-2014 EEEHA1A221XP Aluminum Electrolytic Capacitors/ H Panasonic EEEHA1A221XP datasheet
11-08-2014 EEEHA1A221P Aluminum Electrolytic Capacitors/ H Panasonic EEEHA1A221P datasheet
11-08-2014 EEEHA1A471UP Aluminum Electrolytic Capacitors/ H Panasonic EEEHA1A471UP datasheet
11-08-2014 EEEHA1A471P Aluminum Electrolytic Capacitors/ H Panasonic EEEHA1A471P datasheet
11-08-2014 EEEHA1A102P Aluminum Electrolytic Capacitors/ H Panasonic EEEHA1A102P datasheet
11-08-2014 EEEHA1C100R Aluminum Electrolytic Capacitors/ H Panasonic EEEHA1C100R datasheet
11-08-2014 EEEHA1C220WR Aluminum Electrolytic Capacitors/ H Panasonic EEEHA1C220WR datasheet
11-08-2014 EEEHA1C220R Aluminum Electrolytic Capacitors/ H Panasonic EEEHA1C220R datasheet
11-08-2014 EEEHA1C330WR Aluminum Electrolytic Capacitors/ H Panasonic EEEHA1C330WR datasheet
11-08-2014 EEEHA1C470WR Aluminum Electrolytic Capacitors/ H Panasonic EEEHA1C470WR datasheet
11-08-2014 EEEHA1C470P Aluminum Electrolytic Capacitors/ H Panasonic EEEHA1C470P datasheet
11-08-2014 EEEHA1C101WP Aluminum Electrolytic Capacitors/ H Panasonic EEEHA1C101WP datasheet
11-08-2014 EEEHA1C221XP Aluminum Electrolytic Capacitors/ H Panasonic EEEHA1C221XP datasheet
11-08-2014 EEEHA1C221UP Aluminum Electrolytic Capacitors/ H Panasonic EEEHA1C221UP datasheet
11-08-2014 EEEHA1C221P Aluminum Electrolytic Capacitors/ H Panasonic EEEHA1C221P datasheet
11-08-2014 EEEHA1C331UP Aluminum Electrolytic Capacitors/ H Panasonic EEEHA1C331UP datasheet
11-08-2014 EEEHA1C331P Aluminum Electrolytic Capacitors/ H Panasonic EEEHA1C331P datasheet
11-08-2014 EEEHA1C471UP Aluminum Electrolytic Capacitors/ H Panasonic EEEHA1C471UP datasheet
11-08-2014 EEEHA1C471P Aluminum Electrolytic Capacitors/ H Panasonic EEEHA1C471P datasheet
11-08-2014 EEEHA1C681P Aluminum Electrolytic Capacitors/ H Panasonic EEEHA1C681P datasheet
11-08-2014 EEEHA1E4R7R Aluminum Electrolytic Capacitors/ H Panasonic EEEHA1E4R7R datasheet
11-08-2014 EEEHA1E100WR Aluminum Electrolytic Capacitors/ H Panasonic EEEHA1E100WR datasheet
11-08-2014 EEEHA1E100R Aluminum Electrolytic Capacitors/ H Panasonic EEEHA1E100R datasheet
11-08-2014 EEEHA1E220WR Aluminum Electrolytic Capacitors/ H Panasonic EEEHA1E220WR datasheet
11-08-2014 EEEHA1E220P Aluminum Electrolytic Capacitors/ H Panasonic EEEHA1E220P datasheet
11-08-2014 EEEHA1E330WR Aluminum Electrolytic Capacitors/ H Panasonic EEEHA1E330WR datasheet
11-08-2014 EEEHA1E330P Aluminum Electrolytic Capacitors/ H Panasonic EEEHA1E330P datasheet
11-08-2014 EEEHA1E470WP Aluminum Electrolytic Capacitors/ H Panasonic EEEHA1E470WP datasheet
11-08-2014 EEEHA1E470P Aluminum Electrolytic Capacitors/ H Panasonic EEEHA1E470P datasheet
11-08-2014 EEEHA1E101XP Aluminum Electrolytic Capacitors/ H Panasonic EEEHA1E101XP datasheet
11-08-2014 EEEHA1E101UP Aluminum Electrolytic Capacitors/ H Panasonic EEEHA1E101UP datasheet
11-08-2014 EEEHA1E101P Aluminum Electrolytic Capacitors/ H Panasonic EEEHA1E101P datasheet
11-08-2014 EEEHA1E221UP Aluminum Electrolytic Capacitors/ H Panasonic EEEHA1E221UP datasheet
11-08-2014 EEEHA1E221P Aluminum Electrolytic Capacitors/ H Panasonic EEEHA1E221P datasheet
11-08-2014 EEEHA1E331UP Aluminum Electrolytic Capacitors/ H Panasonic EEEHA1E331UP datasheet
11-08-2014 EEEHA1E331P Aluminum Electrolytic Capacitors/ H Panasonic EEEHA1E331P datasheet
11-08-2014 EEEHA1E471P Aluminum Electrolytic Capacitors/ H Panasonic EEEHA1E471P datasheet
11-08-2014 EEEHA1V4R7R Aluminum Electrolytic Capacitors/ H Panasonic EEEHA1V4R7R datasheet
11-08-2014 EEEHA1V100WR Aluminum Electrolytic Capacitors/ H Panasonic EEEHA1V100WR datasheet
11-08-2014 EEEHA1V100R Aluminum Electrolytic Capacitors/ H Panasonic EEEHA1V100R datasheet
11-08-2014 EEEHA1V220WR Aluminum Electrolytic Capacitors/ H Panasonic EEEHA1V220WR datasheet
11-08-2014 EEEHA1V220P Aluminum Electrolytic Capacitors/ H Panasonic EEEHA1V220P datasheet
11-08-2014 EEEHA1V330WP Aluminum Electrolytic Capacitors/ H Panasonic EEEHA1V330WP datasheet
11-08-2014 EEEHA1V330P Aluminum Electrolytic Capacitors/ H Panasonic EEEHA1V330P datasheet
11-08-2014 EEEHA1V470UP Aluminum Electrolytic Capacitors/ H Panasonic EEEHA1V470UP datasheet
11-08-2014 EEEHA1V470P Aluminum Electrolytic Capacitors/ H Panasonic EEEHA1V470P datasheet
11-08-2014 EEEHA1V101XP Aluminum Electrolytic Capacitors/ H Panasonic EEEHA1V101XP datasheet
11-08-2014 EEEHA1V101UP Aluminum Electrolytic Capacitors/ H Panasonic EEEHA1V101UP datasheet
11-08-2014 EEEHA1V101P Aluminum Electrolytic Capacitors/ H Panasonic EEEHA1V101P datasheet
11-08-2014 EEEHA1V221UP Aluminum Electrolytic Capacitors/ H Panasonic EEEHA1V221UP datasheet
11-08-2014 EEEHA1V221P Aluminum Electrolytic Capacitors/ H Panasonic EEEHA1V221P datasheet
11-08-2014 EEEHA1V331P Aluminum Electrolytic Capacitors/ H Panasonic EEEHA1V331P datasheet
11-08-2014 EEEHA1HR10R Aluminum Electrolytic Capacitors/ H Panasonic EEEHA1HR10R datasheet
11-08-2014 EEEHA1HR22R Aluminum Electrolytic Capacitors/ H Panasonic EEEHA1HR22R datasheet
11-08-2014 EEEHA1HR33R Aluminum Electrolytic Capacitors/ H Panasonic EEEHA1HR33R datasheet
11-08-2014 EEEHA1HR47R Aluminum Electrolytic Capacitors/ H Panasonic EEEHA1HR47R datasheet
11-08-2014 EEEHA1H1R0R Aluminum Electrolytic Capacitors/ H Panasonic EEEHA1H1R0R datasheet
11-08-2014 EEEHA1H2R2R Aluminum Electrolytic Capacitors/ H Panasonic EEEHA1H2R2R datasheet
11-08-2014 EEEHA1H3R3R Aluminum Electrolytic Capacitors/ H Panasonic EEEHA1H3R3R datasheet
11-08-2014 EEEHA1H4R7R Aluminum Electrolytic Capacitors/ H Panasonic EEEHA1H4R7R datasheet
11-08-2014 EEEHA1H100P Aluminum Electrolytic Capacitors/ H Panasonic EEEHA1H100P datasheet
11-08-2014 EEEHA1H220P Aluminum Electrolytic Capacitors/ H Panasonic EEEHA1H220P datasheet
11-08-2014 EEEHA1H330XP Aluminum Electrolytic Capacitors/ H Panasonic EEEHA1H330XP datasheet
11-08-2014 EEEHA1H330UP Aluminum Electrolytic Capacitors/ H Panasonic EEEHA1H330UP datasheet
11-08-2014 EEEHA1H330P Aluminum Electrolytic Capacitors/ H Panasonic EEEHA1H330P datasheet
11-08-2014 EEEHA1H470XP Aluminum Electrolytic Capacitors/ H Panasonic EEEHA1H470XP datasheet
11-08-2014 EEEHA1H470UP Aluminum Electrolytic Capacitors/ H Panasonic EEEHA1H470UP datasheet
11-08-2014 EEEHA1H470P Aluminum Electrolytic Capacitors/ H Panasonic EEEHA1H470P datasheet
11-08-2014 EEEHA1H101UP Aluminum Electrolytic Capacitors/ H Panasonic EEEHA1H101UP datasheet
11-08-2014 EEEHA1H101P Aluminum Electrolytic Capacitors/ H Panasonic EEEHA1H101P datasheet
11-08-2014 EEEHA1H221P Aluminum Electrolytic Capacitors/ H Panasonic EEEHA1H221P datasheet
11-08-2014 EEEHA1J100P Aluminum Electrolytic Capacitors/ H Panasonic EEEHA1J100P datasheet
11-08-2014 EEEHA1J220UP Aluminum Electrolytic Capacitors/ H Panasonic EEEHA1J220UP datasheet
11-08-2014 EEEHA1J220P Aluminum Electrolytic Capacitors/ H Panasonic EEEHA1J220P datasheet
11-08-2014 EEEHA1J330P Aluminum Electrolytic Capacitors/ H Panasonic EEEHA1J330P datasheet
11-08-2014 EEEHA1J470UP Aluminum Electrolytic Capacitors/ H Panasonic EEEHA1J470UP datasheet
11-08-2014 EEEHA1J470P Aluminum Electrolytic Capacitors/ H Panasonic EEEHA1J470P datasheet
11-08-2014 EEEHA2A3R3P Aluminum Electrolytic Capacitors/ H Panasonic EEEHA2A3R3P datasheet
11-08-2014 EEEHA2A4R7UP Aluminum Electrolytic Capacitors/ H Panasonic EEEHA2A4R7UP datasheet
11-08-2014 EEEHA2A100P Aluminum Electrolytic Capacitors/ H Panasonic EEEHA2A100P datasheet
11-08-2014 EEEHA2A220UP Aluminum Electrolytic Capacitors/ H Panasonic EEEHA2A220UP datasheet
11-08-2014 EEEHA2A220P Aluminum Electrolytic Capacitors/ H Panasonic EEEHA2A220P datasheet
11-08-2014 EEEHA2A330P Aluminum Electrolytic Capacitors/ H Panasonic EEEHA2A330P datasheet
11-08-2014 EEEHA2A470UP Aluminum Electrolytic Capacitors/ H Panasonic EEEHA2A470UP datasheet
11-08-2014 EEUHD1A331 Aluminum Electrolytic Capacitors/ H Panasonic EEUHD1A331 datasheet
11-08-2014 EEUHD1A471 Aluminum Electrolytic Capacitors/ H Panasonic EEUHD1A471 datasheet
11-08-2014 EEUHD1A102 Aluminum Electrolytic Capacitors/ H Panasonic EEUHD1A102 datasheet
11-08-2014 EEUHD1A222 Aluminum Electrolytic Capacitors/ H Panasonic EEUHD1A222 datasheet
11-08-2014 EEUHD1A472 Aluminum Electrolytic Capacitors/ H Panasonic EEUHD1A472 datasheet
11-08-2014 EEUHD1A682 Aluminum Electrolytic Capacitors/ H Panasonic EEUHD1A682 datasheet
11-08-2014 EEUHD1A103 Aluminum Electrolytic Capacitors/ H Panasonic EEUHD1A103 datasheet
11-08-2014 EEUHD1A153 Aluminum Electrolytic Capacitors/ H Panasonic EEUHD1A153 datasheet
11-08-2014 EEUHD1A223 Aluminum Electrolytic Capacitors/ H Panasonic EEUHD1A223 datasheet
11-08-2014 EEUHD1C101 Aluminum Electrolytic Capacitors/ H Panasonic EEUHD1C101 datasheet
11-08-2014 EEUHD1C221 Aluminum Electrolytic Capacitors/ H Panasonic EEUHD1C221 datasheet
11-08-2014 EEUHD1C331 Aluminum Electrolytic Capacitors/ H Panasonic EEUHD1C331 datasheet
11-08-2014 EEUHD1C471 Aluminum Electrolytic Capacitors/ H Panasonic EEUHD1C471 datasheet
11-08-2014 EEUHD1C332 Aluminum Electrolytic Capacitors/ H Panasonic EEUHD1C332 datasheet
11-08-2014 EEUHD1C472 Aluminum Electrolytic Capacitors/ H Panasonic EEUHD1C472 datasheet
11-08-2014 EEUHD1C682 Aluminum Electrolytic Capacitors/ H Panasonic EEUHD1C682 datasheet
11-08-2014 EEUHD1C822 Aluminum Electrolytic Capacitors/ H Panasonic EEUHD1C822 datasheet
11-08-2014 EEUHD1C103 Aluminum Electrolytic Capacitors/ H Panasonic EEUHD1C103 datasheet
11-08-2014 EEUHD1C153 Aluminum Electrolytic Capacitors/ H Panasonic EEUHD1C153 datasheet
11-08-2014 EEUHD1E470 Aluminum Electrolytic Capacitors/ H Panasonic EEUHD1E470 datasheet
11-08-2014 EEUHD1E680 Aluminum Electrolytic Capacitors/ H Panasonic EEUHD1E680 datasheet
11-08-2014 EEUHD1E101 Aluminum Electrolytic Capacitors/ H Panasonic EEUHD1E101 datasheet
11-08-2014 EEUHD1E221 Aluminum Electrolytic Capacitors/ H Panasonic EEUHD1E221 datasheet
11-08-2014 EEUHD1E331 Aluminum Electrolytic Capacitors/ H Panasonic EEUHD1E331 datasheet
11-08-2014 EEUHD1E471 Aluminum Electrolytic Capacitors/ H Panasonic EEUHD1E471 datasheet
11-08-2014 EEUHD1E102 Aluminum Electrolytic Capacitors/ H Panasonic EEUHD1E102 datasheet
11-08-2014 EEUHD1E222 Aluminum Electrolytic Capacitors/ H Panasonic EEUHD1E222 datasheet
11-08-2014 EEUHD1E332 Aluminum Electrolytic Capacitors/ H Panasonic EEUHD1E332 datasheet
11-08-2014 EEUHD1E472 Aluminum Electrolytic Capacitors/ H Panasonic EEUHD1E472 datasheet
11-08-2014 EEUHD1E562 Aluminum Electrolytic Capacitors/ H Panasonic EEUHD1E562 datasheet
11-08-2014 EEUHD1E682 Aluminum Electrolytic Capacitors/ H Panasonic EEUHD1E682 datasheet
11-08-2014 EEUHD1E103 Aluminum Electrolytic Capacitors/ H Panasonic EEUHD1E103 datasheet
11-08-2014 EEUHD1V470 Aluminum Electrolytic Capacitors/ H Panasonic EEUHD1V470 datasheet
11-08-2014 EEUHD1V101 Aluminum Electrolytic Capacitors/ H Panasonic EEUHD1V101 datasheet
11-08-2014 EEUHD1V221 Aluminum Electrolytic Capacitors/ H Panasonic EEUHD1V221 datasheet
11-08-2014 EEUHD1V331 Aluminum Electrolytic Capacitors/ H Panasonic EEUHD1V331 datasheet
11-08-2014 EEUHD1V471 Aluminum Electrolytic Capacitors/ H Panasonic EEUHD1V471 datasheet
11-08-2014 EEUHD1V681 Aluminum Electrolytic Capacitors/ H Panasonic EEUHD1V681 datasheet
11-08-2014 EEUHD1V222 Aluminum Electrolytic Capacitors/ H Panasonic EEUHD1V222 datasheet
11-08-2014 EEUHD1V332 Aluminum Electrolytic Capacitors/ H Panasonic EEUHD1V332 datasheet
11-08-2014 EEUHD1V472 Aluminum Electrolytic Capacitors/ H Panasonic EEUHD1V472 datasheet
11-08-2014 EEUHD1V682 Aluminum Electrolytic Capacitors/ H Panasonic EEUHD1V682 datasheet
11-08-2014 EEUHD1HR10 Aluminum Electrolytic Capacitors/ H Panasonic EEUHD1HR10 datasheet
11-08-2014 EEUHD1HR22 Aluminum Electrolytic Capacitors/ H Panasonic EEUHD1HR22 datasheet
11-08-2014 EEUHD1HR33 Aluminum Electrolytic Capacitors/ H Panasonic EEUHD1HR33 datasheet
11-08-2014 EEUHD1HR47 Aluminum Electrolytic Capacitors/ H Panasonic EEUHD1HR47 datasheet
11-08-2014 EEUHD1H1R0 Aluminum Electrolytic Capacitors/ H Panasonic EEUHD1H1R0 datasheet
11-08-2014 EEUHD1H2R2 Aluminum Electrolytic Capacitors/ H Panasonic EEUHD1H2R2 datasheet
11-08-2014 EEUHD1H3R3 Aluminum Electrolytic Capacitors/ H Panasonic EEUHD1H3R3 datasheet
11-08-2014 EEUHD1H4R7 Aluminum Electrolytic Capacitors/ H Panasonic EEUHD1H4R7 datasheet
11-08-2014 EEUHD1H100 Aluminum Electrolytic Capacitors/ H Panasonic EEUHD1H100 datasheet
11-08-2014 EEUHD1H220 Aluminum Electrolytic Capacitors/ H Panasonic EEUHD1H220 datasheet
11-08-2014 EEUHD1H330 Aluminum Electrolytic Capacitors/ H Panasonic EEUHD1H330 datasheet
11-08-2014 EEUHD1H470 Aluminum Electrolytic Capacitors/ H Panasonic EEUHD1H470 datasheet
11-08-2014 EEUHD1H680 Aluminum Electrolytic Capacitors/ H Panasonic EEUHD1H680 datasheet
11-08-2014 EEUHD1H101 Aluminum Electrolytic Capacitors/ H Panasonic EEUHD1H101 datasheet
11-08-2014 EEUHD1H221 Aluminum Electrolytic Capacitors/ H Panasonic EEUHD1H221 datasheet
11-08-2014 EEUHD1H331 Aluminum Electrolytic Capacitors/ H Panasonic EEUHD1H331 datasheet
11-08-2014 EEUHD1H471 Aluminum Electrolytic Capacitors/ H Panasonic EEUHD1H471 datasheet
11-08-2014 EEUHD1H561S Aluminum Electrolytic Capacitors/ H Panasonic EEUHD1H561S datasheet
11-08-2014 EEUHD1H681S Aluminum Electrolytic Capacitors/ H Panasonic EEUHD1H681S datasheet
11-08-2014 EEUHD1H102 Aluminum Electrolytic Capacitors/ H Panasonic EEUHD1H102 datasheet
11-08-2014 EEUHD1H222 Aluminum Electrolytic Capacitors/ H Panasonic EEUHD1H222 datasheet
11-08-2014 EEUHD1H332 Aluminum Electrolytic Capacitors/ H Panasonic EEUHD1H332 datasheet
11-08-2014 ELL4FG1R0NA Power Inductors / Wire Wound type G Panasonic ELL4FG1R0NA datasheet
11-08-2014 ELL4FG1R5NA Power Inductors / Wire Wound type G Panasonic ELL4FG1R5NA datasheet
11-08-2014 ELL4FG2R0NA Power Inductors / Wire Wound type G Panasonic ELL4FG2R0NA datasheet
11-08-2014 ELL4FG3R3NA Choke Coils Power Inductors / Wire Panasonic ELL4FG3R3NA datasheet
11-08-2014 ELL4FG4R7NA Power Inductors / Wire Wound type G Panasonic ELL4FG4R7NA datasheet
11-08-2014 ELL4FG6R8NA Choke Coils Power Inductors / Wire Panasonic ELL4FG6R8NA datasheet
11-08-2014 ELL4FG100MA Choke Coils Power Inductors / Wire Panasonic ELL4FG100MA datasheet
11-08-2014 ELL4FG150MA Power Inductors / Wire Wound type G Panasonic ELL4FG150MA datasheet
11-08-2014 ELL4FG220MA Power Inductors / Wire Wound type G Panasonic ELL4FG220MA datasheet
11-08-2014 ELL4FG330MA Power Inductors / Wire Wound type G Panasonic ELL4FG330MA datasheet
11-08-2014 ELL4FG470MA Power Inductors / Wire Wound type G Panasonic ELL4FG470MA datasheet
11-08-2014 ELL4GG1R2N Power Inductors / Wire Wound type G Panasonic ELL4GG1R2N datasheet
11-08-2014 ELL4GG1R8N Choke Coils Power Inductors / Wire Panasonic ELL4GG1R8N datasheet
11-08-2014 ELL4GG2R2N Power Inductors / Wire Wound type G Panasonic ELL4GG2R2N datasheet
11-08-2014 ELL4GG3R3N Power Inductors / Wire Wound type G Panasonic ELL4GG3R3N datasheet
11-08-2014 ELL4GG3R9N Power Inductors / Wire Wound type G Panasonic ELL4GG3R9N datasheet
11-08-2014 ELL4GG4R7N Power Inductors / Wire Wound type G Panasonic ELL4GG4R7N datasheet
11-08-2014 ELL4GG5R6N Power Inductors / Wire Wound type G Panasonic ELL4GG5R6N datasheet
11-08-2014 ELL4GG6R8N Power Inductors / Wire Wound type G Panasonic ELL4GG6R8N datasheet
11-08-2014 ELL4GG8R2N Power Inductors / Wire Wound type G Panasonic ELL4GG8R2N datasheet
11-08-2014 ELL4GG100M Power Inductors / Wire Wound type G Panasonic ELL4GG100M datasheet
11-08-2014 ELL4GG120M Power Inductors / Wire Wound type G Panasonic ELL4GG120M datasheet
11-08-2014 ELL4GG150M Choke Coils Power Inductors / Wire Panasonic ELL4GG150M datasheet
11-08-2014 ELL4GG220M Power Inductors / Wire Wound type G Panasonic ELL4GG220M datasheet
11-08-2014 ELL4GG330M Power Inductors / Wire Wound type G Panasonic ELL4GG330M datasheet
11-08-2014 ELL4GG470M Power Inductors / Wire Wound type G Panasonic ELL4GG470M datasheet
11-08-2014 ELL4GG101M Power Inductors / Wire Wound type G Panasonic ELL4GG101M datasheet
11-08-2014 ELL4LG1R0NA Power Inductors / Wire Wound type G Panasonic ELL4LG1R0NA datasheet
11-08-2014 ELL4LG1R5NA Power Inductors / Wire Wound type G Panasonic ELL4LG1R5NA datasheet
11-08-2014 ELL4LG2R2NA Power Inductors / Wire Wound type G Panasonic ELL4LG2R2NA datasheet
11-08-2014 ELL4LG2R7NA Power Inductors / Wire Wound type G Panasonic ELL4LG2R7NA datasheet
11-08-2014 ELL4LG3R3NA Power Inductors / Wire Wound type G Panasonic ELL4LG3R3NA datasheet
11-08-2014 ELL4LG4R7NA Power Inductors / Wire Wound type G Panasonic ELL4LG4R7NA datasheet
11-08-2014 ELL4LG6R2NA Choke Coils Power Inductors / Wire Panasonic ELL4LG6R2NA datasheet
11-08-2014 ELL4LG100MA Power Inductors / Wire Wound type G Panasonic ELL4LG100MA datasheet
11-08-2014 ELL4LG150MA Choke Coils Power Inductors / Wire Panasonic ELL4LG150MA datasheet
11-08-2014 ELL4LG220MA Choke Coils Power Inductors / Wire Panasonic ELL4LG220MA datasheet
11-08-2014 ELL4LG330MA Power Inductors / Wire Wound type G Panasonic ELL4LG330MA datasheet
11-08-2014 ELL4LG470MA Power Inductors / Wire Wound type G Panasonic ELL4LG470MA datasheet
11-08-2014 ELL4LG680MA Power Inductors / Wire Wound type G Panasonic ELL4LG680MA datasheet
11-08-2014 ELL4LG101MA Power Inductors / Wire Wound type G Panasonic ELL4LG101MA datasheet
11-08-2014 ELL4LG151MA Power Inductors / Wire Wound type G Panasonic ELL4LG151MA datasheet
11-08-2014 ELJRF1N0FB Fixed Inductors (Chip Inductors) Ch Panasonic ELJRF1N0FB datasheet
11-08-2014 ELJRF1N2FB Chip Inductors High Frequency Use ( Panasonic ELJRF1N2FB datasheet
11-08-2014 ELJRF1N5FB Fixed Inductors (Chip Inductors) Ch Panasonic ELJRF1N5FB datasheet
11-08-2014 ELJRF1N8FB Chip Inductors High Frequency Use ( Panasonic ELJRF1N8FB datasheet
11-08-2014 ELJRF2N2FB Fixed Inductors (Chip Inductors) Ch Panasonic ELJRF2N2FB datasheet
11-08-2014 ELJRF2N7FB Chip Inductors High Frequency Use ( Panasonic ELJRF2N7FB datasheet
11-08-2014 ELJRF3N3FB Chip Inductors High Frequency Use ( Panasonic ELJRF3N3FB datasheet
11-08-2014 ELJRF3N9FB Chip Inductors High Frequency Use ( Panasonic ELJRF3N9FB datasheet
11-08-2014 ELJRF4N7FB Chip Inductors High Frequency Use ( Panasonic ELJRF4N7FB datasheet
11-08-2014 ELJRF5N6FB Chip Inductors High Frequency Use ( Panasonic ELJRF5N6FB datasheet
11-08-2014 ELJRF6N8FB Chip Inductors High Frequency Use ( Panasonic ELJRF6N8FB datasheet
11-08-2014 ELJRF8N2FB Chip Inductors High Frequency Use ( Panasonic ELJRF8N2FB datasheet
11-08-2014 ELJRF10NFB Chip Inductors High Frequency Use ( Panasonic ELJRF10NFB datasheet
11-08-2014 ELJRF12NFB Chip Inductors High Frequency Use ( Panasonic ELJRF12NFB datasheet
11-08-2014 ELJRF15NFB Fixed Inductors (Chip Inductors) Ch Panasonic ELJRF15NFB datasheet
11-08-2014 ELJRF18NFB Chip Inductors High Frequency Use ( Panasonic ELJRF18NFB datasheet
11-08-2014 ELJRF22NFB Chip Inductors High Frequency Use ( Panasonic ELJRF22NFB datasheet
11-08-2014 ELJRF27NFB Chip Inductors High Frequency Use ( Panasonic ELJRF27NFB datasheet
11-08-2014 ELJRF33NFB Fixed Inductors (Chip Inductors) Ch Panasonic ELJRF33NFB datasheet
11-08-2014 ELJRF39NFB Fixed Inductors (Chip Inductors) Ch Panasonic ELJRF39NFB datasheet
11-08-2014 ELJRF47NFB Fixed Inductors (Chip Inductors) Ch Panasonic ELJRF47NFB datasheet
11-08-2014 ELJRF56NFB Chip Inductors High Frequency Use ( Panasonic ELJRF56NFB datasheet
11-08-2014 ELJRF68NFB Chip Inductors High Frequency Use ( Panasonic ELJRF68NFB datasheet
11-08-2014 ELJRF82NFB Fixed Inductors (Chip Inductors) Ch Panasonic ELJRF82NFB datasheet
11-08-2014 ELJRFR10FB Chip Inductors High Frequency Use ( Panasonic ELJRFR10FB datasheet
11-08-2014 ELJRF2N0FB Chip Inductors High Frequency Use ( Panasonic ELJRF2N0FB datasheet
11-08-2014 ELJRF2N4FB Fixed Inductors (Chip Inductors) Ch Panasonic ELJRF2N4FB datasheet
11-08-2014 ELJRF3N0FB Chip Inductors High Frequency Use ( Panasonic ELJRF3N0FB datasheet
11-08-2014 ELJRF3N6FB Chip Inductors High Frequency Use ( Panasonic ELJRF3N6FB datasheet
11-08-2014 ELJRF4N3FB Chip Inductors High Frequency Use ( Panasonic ELJRF4N3FB datasheet
11-08-2014 ELJRF5N1FB Chip Inductors High Frequency Use ( Panasonic ELJRF5N1FB datasheet
11-08-2014 ELJRF6N2FB Fixed Inductors (Chip Inductors) Ch Panasonic ELJRF6N2FB datasheet
11-08-2014 ELJRF7N5FB Chip Inductors High Frequency Use ( Panasonic ELJRF7N5FB datasheet
11-08-2014 ELJRF9N1FB Chip Inductors High Frequency Use ( Panasonic ELJRF9N1FB datasheet
11-08-2014 ELJRF11NFB Fixed Inductors (Chip Inductors) Ch Panasonic ELJRF11NFB datasheet
11-08-2014 ELJRF13NFB Chip Inductors High Frequency Use ( Panasonic ELJRF13NFB datasheet
11-08-2014 ELJRF16NFB Chip Inductors High Frequency Use ( Panasonic ELJRF16NFB datasheet
11-08-2014 ELJRF20NFB Chip Inductors High Frequency Use ( Panasonic ELJRF20NFB datasheet
11-08-2014 ELJRF24NFB Chip Inductors High Frequency Use ( Panasonic ELJRF24NFB datasheet
11-08-2014 ELJRF30NFB Chip Inductors High Frequency Use ( Panasonic ELJRF30NFB datasheet
11-08-2014 ELJRF36NFB Chip Inductors High Frequency Use ( Panasonic ELJRF36NFB datasheet
11-08-2014 ELJRF43NFB Chip Inductors High Frequency Use ( Panasonic ELJRF43NFB datasheet
11-08-2014 ELJRF1N0FB Chip Inductors High Frequency Use ( Panasonic ELJRF1N0FB datasheet
11-08-2014 ELJRF1N2FB Chip Inductors High Frequency Use ( Panasonic ELJRF1N2FB datasheet
11-08-2014 ELJRF1N5FB Fixed Inductors (Chip Inductors) Ch Panasonic ELJRF1N5FB datasheet
11-08-2014 ELJRF1N8FB Chip Inductors High Frequency Use ( Panasonic ELJRF1N8FB datasheet
11-08-2014 ELJRF2N2FB Fixed Inductors (Chip Inductors) Ch Panasonic ELJRF2N2FB datasheet
11-08-2014 ELJRF2N7FB Chip Inductors High Frequency Use ( Panasonic ELJRF2N7FB datasheet
11-08-2014 ELJRF3N3FB Chip Inductors High Frequency Use ( Panasonic ELJRF3N3FB datasheet
11-08-2014 ELJRF3N9FB Fixed Inductors (Chip Inductors) Ch Panasonic ELJRF3N9FB datasheet
11-08-2014 ELJRF4N7FB Chip Inductors High Frequency Use ( Panasonic ELJRF4N7FB datasheet
11-08-2014 ELJRF5N6FB Fixed Inductors (Chip Inductors) Ch Panasonic ELJRF5N6FB datasheet
11-08-2014 ELJRF6N8FB Fixed Inductors (Chip Inductors) Ch Panasonic ELJRF6N8FB datasheet
11-08-2014 ELJRF8N2FB Chip Inductors High Frequency Use ( Panasonic ELJRF8N2FB datasheet
11-08-2014 ELJRF10NFB Chip Inductors High Frequency Use ( Panasonic ELJRF10NFB datasheet
11-08-2014 ELJRF12NFB Chip Inductors High Frequency Use ( Panasonic ELJRF12NFB datasheet
11-08-2014 ELJRF15NFB Fixed Inductors (Chip Inductors) Ch Panasonic ELJRF15NFB datasheet
11-08-2014 ELJRF18NFB Chip Inductors High Frequency Use ( Panasonic ELJRF18NFB datasheet
11-08-2014 ELJRF22NFB Chip Inductors High Frequency Use ( Panasonic ELJRF22NFB datasheet
11-08-2014 ELJRF27NFB Chip Inductors High Frequency Use ( Panasonic ELJRF27NFB datasheet
11-08-2014 ELJRF33NFB Fixed Inductors (Chip Inductors) Ch Panasonic ELJRF33NFB datasheet
11-08-2014 ELJRF39NFB Fixed Inductors (Chip Inductors) Ch Panasonic ELJRF39NFB datasheet
11-08-2014 ELJRF47NFB Fixed Inductors (Chip Inductors) Ch Panasonic ELJRF47NFB datasheet
11-08-2014 ELJRF56NFB Chip Inductors High Frequency Use ( Panasonic ELJRF56NFB datasheet
11-08-2014 ELJRF68NFB Chip Inductors High Frequency Use ( Panasonic ELJRF68NFB datasheet
11-08-2014 ELJRF82NFB Fixed Inductors (Chip Inductors) Ch Panasonic ELJRF82NFB datasheet
11-08-2014 ELJRFR10FB Chip Inductors High Frequency Use ( Panasonic ELJRFR10FB datasheet
11-08-2014 ELJRE1N0FA Chip Inductors High Frequency Use ( Panasonic ELJRE1N0FA datasheet
11-08-2014 ELJRE1N2FA Chip Inductors High Frequency Use ( Panasonic ELJRE1N2FA datasheet
11-08-2014 ELJRE1N5FA Chip Inductors High Frequency Use ( Panasonic ELJRE1N5FA datasheet
11-08-2014 ELJRE1N8FA Chip Inductors High Frequency Use ( Panasonic ELJRE1N8FA datasheet
11-08-2014 ELJRE2N2FA Fixed Inductors (Chip Inductors) Ch Panasonic ELJRE2N2FA datasheet
11-08-2014 ELJRE2N7FA Chip Inductors High Frequency Use ( Panasonic ELJRE2N7FA datasheet
11-08-2014 ELJRE3N3FA Chip Inductors High Frequency Use ( Panasonic ELJRE3N3FA datasheet
11-08-2014 ELJRE3N9FA Chip Inductors High Frequency Use ( Panasonic ELJRE3N9FA datasheet
11-08-2014 ELJRE4N7FA Chip Inductors High Frequency Use ( Panasonic ELJRE4N7FA datasheet
11-08-2014 ELJRE5N6FA Chip Inductors High Frequency Use ( Panasonic ELJRE5N6FA datasheet
11-08-2014 ELJRE6N8FA Fixed Inductors (Chip Inductors) Ch Panasonic ELJRE6N8FA datasheet
11-08-2014 ELJRE8N2FA Chip Inductors High Frequency Use ( Panasonic ELJRE8N2FA datasheet
11-08-2014 ELJRE10NFA Fixed Inductors (Chip Inductors) Ch Panasonic ELJRE10NFA datasheet
11-08-2014 ELJRE12NFA Chip Inductors High Frequency Use ( Panasonic ELJRE12NFA datasheet
11-08-2014 ELJRE15NFA Fixed Inductors (Chip Inductors) Ch Panasonic ELJRE15NFA datasheet
11-08-2014 ELJRE18NFA Chip Inductors High Frequency Use ( Panasonic ELJRE18NFA datasheet
11-08-2014 ELJRE22NFA Chip Inductors High Frequency Use ( Panasonic ELJRE22NFA datasheet
11-08-2014 ELJRE27NFA Chip Inductors High Frequency Use ( Panasonic ELJRE27NFA datasheet
11-08-2014 ELJRE33NFA Chip Inductors High Frequency Use ( Panasonic ELJRE33NFA datasheet
11-08-2014 ELJRE39NFA Chip Inductors High Frequency Use ( Panasonic ELJRE39NFA datasheet
11-08-2014 ELJRE47NFA Chip Inductors High Frequency Use ( Panasonic ELJRE47NFA datasheet
11-08-2014 ELJRE56NFA Fixed Inductors (Chip Inductors) Ch Panasonic ELJRE56NFA datasheet
11-08-2014 ELJRE68NFA Chip Inductors High Frequency Use ( Panasonic ELJRE68NFA datasheet
11-08-2014 ELJRE82NFA Chip Inductors High Frequency Use ( Panasonic ELJRE82NFA datasheet
11-08-2014 ELJRER10FA Chip Inductors High Frequency Use ( Panasonic ELJRER10FA datasheet
11-08-2014 ELJRER12FA Fixed Inductors (Chip Inductors) Ch Panasonic ELJRER12FA datasheet
11-08-2014 ELJRER15FA Fixed Inductors (Chip Inductors) Ch Panasonic ELJRER15FA datasheet
11-08-2014 ELJRER18FA Chip Inductors High Frequency Use ( Panasonic ELJRER18FA datasheet
11-08-2014 ELJRER22FA Chip Inductors High Frequency Use ( Panasonic ELJRER22FA datasheet
11-08-2014 ELJRE1N0FA Fixed Inductors (Chip Inductors) Ch Panasonic ELJRE1N0FA datasheet
11-08-2014 ELJRE1N2FA Chip Inductors High Frequency Use ( Panasonic ELJRE1N2FA datasheet
11-08-2014 ELJRE1N5FA Chip Inductors High Frequency Use ( Panasonic ELJRE1N5FA datasheet
11-08-2014 ELJRE1N8FA Chip Inductors High Frequency Use ( Panasonic ELJRE1N8FA datasheet
11-08-2014 ELJRE2N2FA Fixed Inductors (Chip Inductors) Ch Panasonic ELJRE2N2FA datasheet
11-08-2014 ELJRE2N7FA Chip Inductors High Frequency Use ( Panasonic ELJRE2N7FA datasheet
11-08-2014 ELJRE3N3FA Chip Inductors High Frequency Use ( Panasonic ELJRE3N3FA datasheet
11-08-2014 ELJRE3N9FA Chip Inductors High Frequency Use ( Panasonic ELJRE3N9FA datasheet
11-08-2014 ELJRE4N7FA Fixed Inductors (Chip Inductors) Ch Panasonic ELJRE4N7FA datasheet
11-08-2014 ELJRE5N6FA Chip Inductors High Frequency Use ( Panasonic ELJRE5N6FA datasheet
11-08-2014 ELJRE6N8FA Chip Inductors High Frequency Use ( Panasonic ELJRE6N8FA datasheet
11-08-2014 ELJRE8N2FA Chip Inductors High Frequency Use ( Panasonic ELJRE8N2FA datasheet
11-08-2014 ELJRE10NFA Fixed Inductors (Chip Inductors) Ch Panasonic ELJRE10NFA datasheet
11-08-2014 ELJRE12NFA Fixed Inductors (Chip Inductors) Ch Panasonic ELJRE12NFA datasheet
11-08-2014 ELJRE15NFA Fixed Inductors (Chip Inductors) Ch Panasonic ELJRE15NFA datasheet
11-08-2014 ELJRE18NFA Chip Inductors High Frequency Use ( Panasonic ELJRE18NFA datasheet
11-08-2014 ELJRE22NFA Chip Inductors High Frequency Use ( Panasonic ELJRE22NFA datasheet
11-08-2014 ELJRE27NFA Chip Inductors High Frequency Use ( Panasonic ELJRE27NFA datasheet
11-08-2014 ELJRE33NFA Chip Inductors High Frequency Use ( Panasonic ELJRE33NFA datasheet
11-08-2014 ELJRE39NFA Chip Inductors High Frequency Use ( Panasonic ELJRE39NFA datasheet
11-08-2014 ELJRE47NFA Chip Inductors High Frequency Use ( Panasonic ELJRE47NFA datasheet
11-08-2014 ELJRE56NFA Fixed Inductors (Chip Inductors) Ch Panasonic ELJRE56NFA datasheet
11-08-2014 ELJRE68NFA Chip Inductors High Frequency Use ( Panasonic ELJRE68NFA datasheet
11-08-2014 ELJRE82NFA Chip Inductors High Frequency Use ( Panasonic ELJRE82NFA datasheet
11-08-2014 ELJRER10FA Fixed Inductors (Chip Inductors) Ch Panasonic ELJRER10FA datasheet
11-08-2014 ELJRER12FA Fixed Inductors (Chip Inductors) Ch Panasonic ELJRER12FA datasheet
11-08-2014 ELJRER15FA Fixed Inductors (Chip Inductors) Ch Panasonic ELJRER15FA datasheet
11-08-2014 ELJRER18FA Chip Inductors High Frequency Use ( Panasonic ELJRER18FA datasheet
11-08-2014 ELJRER22FA Fixed Inductors (Chip Inductors) Ch Panasonic ELJRER22FA datasheet
11-08-2014 LGU1C682MELZ ALUMINUM ELECTROLYTIC CAPACITORS G Nichicon LGU1C682MELZ datasheet
11-08-2014 LGU1C822MELZ ALUMINUM ELECTROLYTIC CAPACITORS GU Nichicon LGU1C822MELZ datasheet
11-08-2014 LGU1C103MELZ ALUMINUM ELECTROLYTIC CAPACITORS GU Nichicon LGU1C103MELZ datasheet
11-08-2014 LGU1C103MELA ALUMINUM ELECTROLYTIC CAPACITORS GU Nichicon LGU1C103MELA datasheet
11-08-2014 LGU1C123MELZ ALUMINUM ELECTROLYTIC CAPACITORS GU Nichicon LGU1C123MELZ datasheet
11-08-2014 LGU1C123MELA ALUMINUM ELECTROLYTIC CAPACITORS GU Nichicon LGU1C123MELA datasheet
11-08-2014 LGU1C123MELB ALUMINUM ELECTROLYTIC CAPACITORS GU Nichicon LGU1C123MELB datasheet
11-08-2014 LGU1C153MELZ ALUMINUM ELECTROLYTIC CAPACITORS GU Nichicon LGU1C153MELZ datasheet
11-08-2014 LGU1C153MELA ALUMINUM ELECTROLYTIC CAPACITORS GU Nichicon LGU1C153MELA datasheet
11-08-2014 LGU1C153MELB ALUMINUM ELECTROLYTIC CAPACITORS GU Nichicon LGU1C153MELB datasheet
11-08-2014 LGU1C183MELZ ALUMINUM ELECTROLYTIC CAPACITORS G Nichicon LGU1C183MELZ datasheet
11-08-2014 LGU1C183MELA ALUMINUM ELECTROLYTIC CAPACITORS G Nichicon LGU1C183MELA datasheet
11-08-2014 LGU1C183MELB ALUMINUM ELECTROLYTIC CAPACITORS GU Nichicon LGU1C183MELB datasheet
11-08-2014 LGU1C223MELA ALUMINUM ELECTROLYTIC CAPACITORS GU Nichicon LGU1C223MELA datasheet
11-08-2014 LGU1C223MELB ALUMINUM ELECTROLYTIC CAPACITORS GU Nichicon LGU1C223MELB datasheet
11-08-2014 LGU1C223MELC ALUMINUM ELECTROLYTIC CAPACITORS GU Nichicon LGU1C223MELC datasheet
11-08-2014 LGU1C273MELA ALUMINUM ELECTROLYTIC CAPACITORS GU Nichicon LGU1C273MELA datasheet
11-08-2014 LGU1C273MELB ALUMINUM ELECTROLYTIC CAPACITORS GU Nichicon LGU1C273MELB datasheet
11-08-2014 LGU1C273MELC ALUMINUM ELECTROLYTIC CAPACITORS GU Nichicon LGU1C273MELC datasheet
11-08-2014 LGU1C333MELB ALUMINUM ELECTROLYTIC CAPACITORS GU Nichicon LGU1C333MELB datasheet
11-08-2014 LGU1C333MELC ALUMINUM ELECTROLYTIC CAPACITORS GU Nichicon LGU1C333MELC datasheet
11-08-2014 LGU1C393MELB ALUMINUM ELECTROLYTIC CAPACITORS G Nichicon LGU1C393MELB datasheet
11-08-2014 LGU1C393MELC ALUMINUM ELECTROLYTIC CAPACITORS GU Nichicon LGU1C393MELC datasheet
11-08-2014 LGU1C473MELC ALUMINUM ELECTROLYTIC CAPACITORS GU Nichicon LGU1C473MELC datasheet
11-08-2014 LGU1E472MELZ ALUMINUM ELECTROLYTIC CAPACITORS GU Nichicon LGU1E472MELZ datasheet
11-08-2014 LGU1E562MELZ ALUMINUM ELECTROLYTIC CAPACITORS GU Nichicon LGU1E562MELZ datasheet
11-08-2014 LGU1E682MELZ ALUMINUM ELECTROLYTIC CAPACITORS GU Nichicon LGU1E682MELZ datasheet
11-08-2014 LGU1E682MELA ALUMINUM ELECTROLYTIC CAPACITORS G Nichicon LGU1E682MELA datasheet
11-08-2014 LGU1E822MELZ ALUMINUM ELECTROLYTIC CAPACITORS G Nichicon LGU1E822MELZ datasheet
11-08-2014 LGU1E822MELA ALUMINUM ELECTROLYTIC CAPACITORS GU Nichicon LGU1E822MELA datasheet
11-08-2014 LGU1E822MELB ALUMINUM ELECTROLYTIC CAPACITORS GU Nichicon LGU1E822MELB datasheet
11-08-2014 LGU1E103MELZ ALUMINUM ELECTROLYTIC CAPACITORS GU Nichicon LGU1E103MELZ datasheet
11-08-2014 LGU1E103MELA ALUMINUM ELECTROLYTIC CAPACITORS GU Nichicon LGU1E103MELA datasheet
11-08-2014 LGU1E103MELB ALUMINUM ELECTROLYTIC CAPACITORS GU Nichicon LGU1E103MELB datasheet
11-08-2014 LGU1E123MELZ ALUMINUM ELECTROLYTIC CAPACITORS GU Nichicon LGU1E123MELZ datasheet
11-08-2014 LGU1E123MELA ALUMINUM ELECTROLYTIC CAPACITORS GU Nichicon LGU1E123MELA datasheet
11-08-2014 LGU1E123MELB ALUMINUM ELECTROLYTIC CAPACITORS GU Nichicon LGU1E123MELB datasheet
11-08-2014 LGU1E153MELA ALUMINUM ELECTROLYTIC CAPACITORS GU Nichicon LGU1E153MELA datasheet
11-08-2014 LGU1E153MELB ALUMINUM ELECTROLYTIC CAPACITORS GU Nichicon LGU1E153MELB datasheet
11-08-2014 LGU1E153MELC ALUMINUM ELECTROLYTIC CAPACITORS GU Nichicon LGU1E153MELC datasheet
11-08-2014 LGU1E183MELA ALUMINUM ELECTROLYTIC CAPACITORS G Nichicon LGU1E183MELA datasheet
11-08-2014 LGU1E183MELB ALUMINUM ELECTROLYTIC CAPACITORS GU Nichicon LGU1E183MELB datasheet
11-08-2014 LGU1E183MELC ALUMINUM ELECTROLYTIC CAPACITORS GU Nichicon LGU1E183MELC datasheet
11-08-2014 LGU1E223MELB ALUMINUM ELECTROLYTIC CAPACITORS GU Nichicon LGU1E223MELB datasheet
11-08-2014 LGU1E223MELC ALUMINUM ELECTROLYTIC CAPACITORS GU Nichicon LGU1E223MELC datasheet
11-08-2014 LGU1E273MELC ALUMINUM ELECTROLYTIC CAPACITORS GU Nichicon LGU1E273MELC datasheet
11-08-2014 LGU1E333MELC ALUMINUM ELECTROLYTIC CAPACITORS GU Nichicon LGU1E333MELC datasheet
11-08-2014 LGU1V332MELZ ALUMINUM ELECTROLYTIC CAPACITORS G Nichicon LGU1V332MELZ datasheet
11-08-2014 LGU1V392MELZ ALUMINUM ELECTROLYTIC CAPACITORS GU Nichicon LGU1V392MELZ datasheet
11-08-2014 LGU1V472MELZ ALUMINUM ELECTROLYTIC CAPACITORS GU Nichicon LGU1V472MELZ datasheet
11-08-2014 LGU1V472MELA ALUMINUM ELECTROLYTIC CAPACITORS GU Nichicon LGU1V472MELA datasheet
11-08-2014 LGU1V562MELZ ALUMINUM ELECTROLYTIC CAPACITORS G Nichicon LGU1V562MELZ datasheet
11-08-2014 LGU1V562MELA ALUMINUM ELECTROLYTIC CAPACITORS GU Nichicon LGU1V562MELA datasheet
11-08-2014 LGU1V562MELB ALUMINUM ELECTROLYTIC CAPACITORS GU Nichicon LGU1V562MELB datasheet
11-08-2014 LGU1V682MELZ ALUMINUM ELECTROLYTIC CAPACITORS GU Nichicon LGU1V682MELZ datasheet
11-08-2014 LGU1V682MELA ALUMINUM ELECTROLYTIC CAPACITORS GU Nichicon LGU1V682MELA datasheet
11-08-2014 LGU1V682MELB ALUMINUM ELECTROLYTIC CAPACITORS GU Nichicon LGU1V682MELB datasheet
11-08-2014 LGU1V822MELZ ALUMINUM ELECTROLYTIC CAPACITORS GU Nichicon LGU1V822MELZ datasheet
11-08-2014 LGU1V822MELA ALUMINUM ELECTROLYTIC CAPACITORS GU Nichicon LGU1V822MELA datasheet
11-08-2014 LGU1V822MELB ALUMINUM ELECTROLYTIC CAPACITORS GU Nichicon LGU1V822MELB datasheet
11-08-2014 LGU1V103MELA ALUMINUM ELECTROLYTIC CAPACITORS GU Nichicon LGU1V103MELA datasheet
11-08-2014 LGU1V103MELB ALUMINUM ELECTROLYTIC CAPACITORS GU Nichicon LGU1V103MELB datasheet
11-08-2014 LGU1V123MELA ALUMINUM ELECTROLYTIC CAPACITORS GU Nichicon LGU1V123MELA datasheet
11-08-2014 LGU1V123MELB ALUMINUM ELECTROLYTIC CAPACITORS GU Nichicon LGU1V123MELB datasheet
11-08-2014 LGU1V123MELC ALUMINUM ELECTROLYTIC CAPACITORS GU Nichicon LGU1V123MELC datasheet
11-08-2014 LGU1V153MELB ALUMINUM ELECTROLYTIC CAPACITORS G Nichicon LGU1V153MELB datasheet
11-08-2014 LGU1V153MELC ALUMINUM ELECTROLYTIC CAPACITORS GU Nichicon LGU1V153MELC datasheet
11-08-2014 LGU1V183MELC ALUMINUM ELECTROLYTIC CAPACITORS GU Nichicon LGU1V183MELC datasheet
11-08-2014 LGU1V223MELC ALUMINUM ELECTROLYTIC CAPACITORS G Nichicon LGU1V223MELC datasheet
11-08-2014 LGU1H182MELZ ALUMINUM ELECTROLYTIC CAPACITORS GU Nichicon LGU1H182MELZ datasheet
11-08-2014 LGU1H272MELZ ALUMINUM ELECTROLYTIC CAPACITORS GU Nichicon LGU1H272MELZ datasheet
11-08-2014 LGU1H272MELA ALUMINUM ELECTROLYTIC CAPACITORS GU Nichicon LGU1H272MELA datasheet
11-08-2014 LGU1H332MELZ ALUMINUM ELECTROLYTIC CAPACITORS GU Nichicon LGU1H332MELZ datasheet
11-08-2014 LGU1H332MELA ALUMINUM ELECTROLYTIC CAPACITORS GU Nichicon LGU1H332MELA datasheet
11-08-2014 LGU1H392MELZ ALUMINUM ELECTROLYTIC CAPACITORS GU Nichicon LGU1H392MELZ datasheet
11-08-2014 LGU1H392MELA ALUMINUM ELECTROLYTIC CAPACITORS GU Nichicon LGU1H392MELA datasheet
11-08-2014 LGU1H392MELB ALUMINUM ELECTROLYTIC CAPACITORS GU Nichicon LGU1H392MELB datasheet
11-08-2014 LGU1H472MELZ ALUMINUM ELECTROLYTIC CAPACITORS GU Nichicon LGU1H472MELZ datasheet
11-08-2014 LGU1H472MELA ALUMINUM ELECTROLYTIC CAPACITORS G Nichicon LGU1H472MELA datasheet
11-08-2014 LGU1H472MELB ALUMINUM ELECTROLYTIC CAPACITORS GU Nichicon LGU1H472MELB datasheet
11-08-2014 LGU1H562MELZ ALUMINUM ELECTROLYTIC CAPACITORS GU Nichicon LGU1H562MELZ datasheet
11-08-2014 LGU1H562MELA ALUMINUM ELECTROLYTIC CAPACITORS GU Nichicon LGU1H562MELA datasheet
11-08-2014 LGU1H562MELB ALUMINUM ELECTROLYTIC CAPACITORS GU Nichicon LGU1H562MELB datasheet
11-08-2014 LGU1H682MELA ALUMINUM ELECTROLYTIC CAPACITORS GU Nichicon LGU1H682MELA datasheet
11-08-2014 LGU1H682MELB ALUMINUM ELECTROLYTIC CAPACITORS GU Nichicon LGU1H682MELB datasheet
11-08-2014 LGU1H682MELC ALUMINUM ELECTROLYTIC CAPACITORS GU Nichicon LGU1H682MELC datasheet
11-08-2014 LGU1H822MELB ALUMINUM ELECTROLYTIC CAPACITORS G Nichicon LGU1H822MELB datasheet
11-08-2014 LGU1H822MELC ALUMINUM ELECTROLYTIC CAPACITORS GU Nichicon LGU1H822MELC datasheet
11-08-2014 LGU1H103MELB ALUMINUM ELECTROLYTIC CAPACITORS GU Nichicon LGU1H103MELB datasheet
11-08-2014 LGU1H103MELC ALUMINUM ELECTROLYTIC CAPACITORS GU Nichicon LGU1H103MELC datasheet
11-08-2014 LGU1H123MELC ALUMINUM ELECTROLYTIC CAPACITORS GU Nichicon LGU1H123MELC datasheet
11-08-2014 LGU1H153MELC ALUMINUM ELECTROLYTIC CAPACITORS GU Nichicon LGU1H153MELC datasheet
11-08-2014 LGU1J122MELZ ALUMINUM ELECTROLYTIC CAPACITORS GU Nichicon LGU1J122MELZ datasheet
11-08-2014 LGU1J152MELZ ALUMINUM ELECTROLYTIC CAPACITORS G Nichicon LGU1J152MELZ datasheet
11-08-2014 LGU1J152MELA ALUMINUM ELECTROLYTIC CAPACITORS GU Nichicon LGU1J152MELA datasheet
11-08-2014 LGU1J182MELZ ALUMINUM ELECTROLYTIC CAPACITORS GU Nichicon LGU1J182MELZ datasheet
11-08-2014 LGU1J182MELA ALUMINUM ELECTROLYTIC CAPACITORS G Nichicon LGU1J182MELA datasheet
11-08-2014 LGU1J222MELZ ALUMINUM ELECTROLYTIC CAPACITORS GU Nichicon LGU1J222MELZ datasheet
11-08-2014 LGU1J222MELA ALUMINUM ELECTROLYTIC CAPACITORS G Nichicon LGU1J222MELA datasheet
11-08-2014 LGU1J272MELZ ALUMINUM ELECTROLYTIC CAPACITORS GU Nichicon LGU1J272MELZ datasheet
11-08-2014 LGU1J272MELA ALUMINUM ELECTROLYTIC CAPACITORS GU Nichicon LGU1J272MELA datasheet
11-08-2014 LGU1J272MELB ALUMINUM ELECTROLYTIC CAPACITORS GU Nichicon LGU1J272MELB datasheet
11-08-2014 LGU1J332MELZ ALUMINUM ELECTROLYTIC CAPACITORS G Nichicon LGU1J332MELZ datasheet
11-08-2014 LGU1J332MELA ALUMINUM ELECTROLYTIC CAPACITORS GU Nichicon LGU1J332MELA datasheet
11-08-2014 LGU1J332MELB ALUMINUM ELECTROLYTIC CAPACITORS GU Nichicon LGU1J332MELB datasheet
11-08-2014 LGU1J392MELA ALUMINUM ELECTROLYTIC CAPACITORS GU Nichicon LGU1J392MELA datasheet
11-08-2014 LGU1J392MELB ALUMINUM ELECTROLYTIC CAPACITORS GU Nichicon LGU1J392MELB datasheet
11-08-2014 LGU1J472MELA ALUMINUM ELECTROLYTIC CAPACITORS GU Nichicon LGU1J472MELA datasheet
11-08-2014 LGU1J472MELB ALUMINUM ELECTROLYTIC CAPACITORS GU Nichicon LGU1J472MELB datasheet
11-08-2014 LGU1J472MELC ALUMINUM ELECTROLYTIC CAPACITORS GU Nichicon LGU1J472MELC datasheet
11-08-2014 LGU1J562MELB ALUMINUM ELECTROLYTIC CAPACITORS GU Nichicon LGU1J562MELB datasheet
11-08-2014 LGU1J562MELC ALUMINUM ELECTROLYTIC CAPACITORS GU Nichicon LGU1J562MELC datasheet
11-08-2014 LGU1J682MELB ALUMINUM ELECTROLYTIC CAPACITORS GU Nichicon LGU1J682MELB datasheet
11-08-2014 LGU1J682MELC ALUMINUM ELECTROLYTIC CAPACITORS GU Nichicon LGU1J682MELC datasheet
11-08-2014 LGU1J822MELC ALUMINUM ELECTROLYTIC CAPACITORS GU Nichicon LGU1J822MELC datasheet
11-08-2014 LGU1J103MELC ALUMINUM ELECTROLYTIC CAPACITORS G Nichicon LGU1J103MELC datasheet
11-08-2014 LGU1K821MELZ ALUMINUM ELECTROLYTIC CAPACITORS GU Nichicon LGU1K821MELZ datasheet
11-08-2014 LGU1K102MELZ ALUMINUM ELECTROLYTIC CAPACITORS GU Nichicon LGU1K102MELZ datasheet
11-08-2014 LGU1K122MELZ ALUMINUM ELECTROLYTIC CAPACITORS GU Nichicon LGU1K122MELZ datasheet
11-08-2014 LGU1K122MELA ALUMINUM ELECTROLYTIC CAPACITORS GU Nichicon LGU1K122MELA datasheet
11-08-2014 LGU1K152MELZ ALUMINUM ELECTROLYTIC CAPACITORS G Nichicon LGU1K152MELZ datasheet
11-08-2014 LGU1K152MELA ALUMINUM ELECTROLYTIC CAPACITORS GU Nichicon LGU1K152MELA datasheet
11-08-2014 LGU1K182MELZ ALUMINUM ELECTROLYTIC CAPACITORS GU Nichicon LGU1K182MELZ datasheet
11-08-2014 LGU1K182MELA ALUMINUM ELECTROLYTIC CAPACITORS GU Nichicon LGU1K182MELA datasheet
11-08-2014 LGU1K182MELB ALUMINUM ELECTROLYTIC CAPACITORS GU Nichicon LGU1K182MELB datasheet
11-08-2014 LGU1K222MELZ ALUMINUM ELECTROLYTIC CAPACITORS GU Nichicon LGU1K222MELZ datasheet
11-08-2014 LGU1K222MELA ALUMINUM ELECTROLYTIC CAPACITORS GU Nichicon LGU1K222MELA datasheet
11-08-2014 LGU1K222MELB ALUMINUM ELECTROLYTIC CAPACITORS GU Nichicon LGU1K222MELB datasheet
11-08-2014 LGU1K272MELA ALUMINUM ELECTROLYTIC CAPACITORS GU Nichicon LGU1K272MELA datasheet
11-08-2014 LGU1K272MELB ALUMINUM ELECTROLYTIC CAPACITORS GU Nichicon LGU1K272MELB datasheet
11-08-2014 LGU1K332MELA ALUMINUM ELECTROLYTIC CAPACITORS GU Nichicon LGU1K332MELA datasheet
11-08-2014 LGU1K332MELB ALUMINUM ELECTROLYTIC CAPACITORS GU Nichicon LGU1K332MELB datasheet
11-08-2014 LGU1K332MELC ALUMINUM ELECTROLYTIC CAPACITORS G Nichicon LGU1K332MELC datasheet
11-08-2014 LGU1K392MELA ALUMINUM ELECTROLYTIC CAPACITORS GU Nichicon LGU1K392MELA datasheet
11-08-2014 LGU1K392MELB ALUMINUM ELECTROLYTIC CAPACITORS GU Nichicon LGU1K392MELB datasheet
11-08-2014 LGU1K392MELC ALUMINUM ELECTROLYTIC CAPACITORS GU Nichicon LGU1K392MELC datasheet
11-08-2014 LGU1K472MELB ALUMINUM ELECTROLYTIC CAPACITORS GU Nichicon LGU1K472MELB datasheet
11-08-2014 LGU1K472MELC ALUMINUM ELECTROLYTIC CAPACITORS GU Nichicon LGU1K472MELC datasheet
11-08-2014 LGU1K562MELB ALUMINUM ELECTROLYTIC CAPACITORS GU Nichicon LGU1K562MELB datasheet
11-08-2014 LGU1K562MELC ALUMINUM ELECTROLYTIC CAPACITORS GU Nichicon LGU1K562MELC datasheet
11-08-2014 LGU1K682MELC ALUMINUM ELECTROLYTIC CAPACITORS GU Nichicon LGU1K682MELC datasheet
11-08-2014 LGU2A561MELZ ALUMINUM ELECTROLYTIC CAPACITORS GU Nichicon LGU2A561MELZ datasheet
11-08-2014 LGU2A821MELZ ALUMINUM ELECTROLYTIC CAPACITORS G Nichicon LGU2A821MELZ datasheet
11-08-2014 LGU2A821MELA ALUMINUM ELECTROLYTIC CAPACITORS G Nichicon LGU2A821MELA datasheet
11-08-2014 LGU2A102MELZ ALUMINUM ELECTROLYTIC CAPACITORS GU Nichicon LGU2A102MELZ datasheet
11-08-2014 LGU2A102MELA ALUMINUM ELECTROLYTIC CAPACITORS GU Nichicon LGU2A102MELA datasheet
11-08-2014 LGU2A122MELZ ALUMINUM ELECTROLYTIC CAPACITORS G Nichicon LGU2A122MELZ datasheet
11-08-2014 LGU2A122MELA ALUMINUM ELECTROLYTIC CAPACITORS G Nichicon LGU2A122MELA datasheet
11-08-2014 LGU2A122MELB ALUMINUM ELECTROLYTIC CAPACITORS G Nichicon LGU2A122MELB datasheet
11-08-2014 LGU2A152MELZ ALUMINUM ELECTROLYTIC CAPACITORS GU Nichicon LGU2A152MELZ datasheet
11-08-2014 LGU2A152MELA ALUMINUM ELECTROLYTIC CAPACITORS G Nichicon LGU2A152MELA datasheet
11-08-2014 LGU2A152MELB ALUMINUM ELECTROLYTIC CAPACITORS GU Nichicon LGU2A152MELB datasheet
11-08-2014 LGU2A182MELA ALUMINUM ELECTROLYTIC CAPACITORS GU Nichicon LGU2A182MELA datasheet
11-08-2014 LGU2A182MELB ALUMINUM ELECTROLYTIC CAPACITORS G Nichicon LGU2A182MELB datasheet
11-08-2014 LGU2A222MELA ALUMINUM ELECTROLYTIC CAPACITORS GU Nichicon LGU2A222MELA datasheet
11-08-2014 LGU2A222MELB ALUMINUM ELECTROLYTIC CAPACITORS GU Nichicon LGU2A222MELB datasheet
11-08-2014 LGU2A222MELC ALUMINUM ELECTROLYTIC CAPACITORS GU Nichicon LGU2A222MELC datasheet
11-08-2014 LGU2A272MELB ALUMINUM ELECTROLYTIC CAPACITORS G Nichicon LGU2A272MELB datasheet
11-08-2014 LGU2A272MELC ALUMINUM ELECTROLYTIC CAPACITORS GU Nichicon LGU2A272MELC datasheet
11-08-2014 LGU2A332MELB ALUMINUM ELECTROLYTIC CAPACITORS GU Nichicon LGU2A332MELB datasheet
11-08-2014 LGU2A332MELC ALUMINUM ELECTROLYTIC CAPACITORS GU Nichicon LGU2A332MELC datasheet
11-08-2014 LGU2A392MELC ALUMINUM ELECTROLYTIC CAPACITORS GU Nichicon LGU2A392MELC datasheet
11-08-2014 LGU2A472MELC ALUMINUM ELECTROLYTIC CAPACITORS G Nichicon LGU2A472MELC datasheet
11-08-2014 LGU2C271MELY ALUMINUM ELECTROLYTIC CAPACITORS G Nichicon LGU2C271MELY datasheet
11-08-2014 LGU2C331MELY ALUMINUM ELECTROLYTIC CAPACITORS G Nichicon LGU2C331MELY datasheet
11-08-2014 LGU2C391MELY ALUMINUM ELECTROLYTIC CAPACITORS GU Nichicon LGU2C391MELY datasheet
11-08-2014 LGU2C391MELZ ALUMINUM ELECTROLYTIC CAPACITORS GU Nichicon LGU2C391MELZ datasheet
11-08-2014 LGU2C471MELY ALUMINUM ELECTROLYTIC CAPACITORS GU Nichicon LGU2C471MELY datasheet
11-08-2014 LGU2C471MELZ ALUMINUM ELECTROLYTIC CAPACITORS GU Nichicon LGU2C471MELZ datasheet
11-08-2014 LGU2C471MELA ALUMINUM ELECTROLYTIC CAPACITORS GU Nichicon LGU2C471MELA datasheet
11-08-2014 LGU2C561MELY ALUMINUM ELECTROLYTIC CAPACITORS GU Nichicon LGU2C561MELY datasheet
11-08-2014 LGU2C561MELZ ALUMINUM ELECTROLYTIC CAPACITORS GU Nichicon LGU2C561MELZ datasheet
11-08-2014 LGU2C561MELA ALUMINUM ELECTROLYTIC CAPACITORS GU Nichicon LGU2C561MELA datasheet
11-08-2014 LGU2C561MELB ALUMINUM ELECTROLYTIC CAPACITORS GU Nichicon LGU2C561MELB datasheet
11-08-2014 LGU2C681MELY ALUMINUM ELECTROLYTIC CAPACITORS GU Nichicon LGU2C681MELY datasheet
11-08-2014 LGU2C681MELZ ALUMINUM ELECTROLYTIC CAPACITORS GU Nichicon LGU2C681MELZ datasheet
11-08-2014 LGU2C681MELA ALUMINUM ELECTROLYTIC CAPACITORS GU Nichicon LGU2C681MELA datasheet
11-08-2014 LGU2C681MELB ALUMINUM ELECTROLYTIC CAPACITORS GU Nichicon LGU2C681MELB datasheet
11-08-2014 LGU2C821MELZ ALUMINUM ELECTROLYTIC CAPACITORS G Nichicon LGU2C821MELZ datasheet
11-08-2014 LGU2C821MELA ALUMINUM ELECTROLYTIC CAPACITORS G Nichicon LGU2C821MELA datasheet
11-08-2014 LGU2C821MELB ALUMINUM ELECTROLYTIC CAPACITORS G Nichicon LGU2C821MELB datasheet
11-08-2014 LGU2C821MELC ALUMINUM ELECTROLYTIC CAPACITORS G Nichicon LGU2C821MELC datasheet
11-08-2014 LGU2C102MELZ ALUMINUM ELECTROLYTIC CAPACITORS GU Nichicon LGU2C102MELZ datasheet
11-08-2014 LGU2C102MELA ALUMINUM ELECTROLYTIC CAPACITORS GU Nichicon LGU2C102MELA datasheet
11-08-2014 LGU2C102MELB ALUMINUM ELECTROLYTIC CAPACITORS GU Nichicon LGU2C102MELB datasheet
11-08-2014 LGU2C102MELC ALUMINUM ELECTROLYTIC CAPACITORS GU Nichicon LGU2C102MELC datasheet
11-08-2014 LGU2C122MELA ALUMINUM ELECTROLYTIC CAPACITORS G Nichicon LGU2C122MELA datasheet
11-08-2014 LGU2C122MELB ALUMINUM ELECTROLYTIC CAPACITORS GU Nichicon LGU2C122MELB datasheet
11-08-2014 LGU2C122MELC ALUMINUM ELECTROLYTIC CAPACITORS GU Nichicon LGU2C122MELC datasheet
11-08-2014 LGU2C152MELB ALUMINUM ELECTROLYTIC CAPACITORS GU Nichicon LGU2C152MELB datasheet
11-08-2014 LGU2C152MELC ALUMINUM ELECTROLYTIC CAPACITORS GU Nichicon LGU2C152MELC datasheet
11-08-2014 LGU2C182MELB ALUMINUM ELECTROLYTIC CAPACITORS G Nichicon LGU2C182MELB datasheet
11-08-2014 LGU2C182MELC ALUMINUM ELECTROLYTIC CAPACITORS GU Nichicon LGU2C182MELC datasheet
11-08-2014 LGU2C222MELC ALUMINUM ELECTROLYTIC CAPACITORS GU Nichicon LGU2C222MELC datasheet
11-08-2014 LGU2C272MELC ALUMINUM ELECTROLYTIC CAPACITORS GU Nichicon LGU2C272MELC datasheet
11-08-2014 LGU2Z221MELY ALUMINUM ELECTROLYTIC CAPACITORS G Nichicon LGU2Z221MELY datasheet
11-08-2014 LGU2Z271MELY ALUMINUM ELECTROLYTIC CAPACITORS GU Nichicon LGU2Z271MELY datasheet
11-08-2014 LGU2Z331MELY ALUMINUM ELECTROLYTIC CAPACITORS GU Nichicon LGU2Z331MELY datasheet
11-08-2014 LGU2Z331MELZ ALUMINUM ELECTROLYTIC CAPACITORS G Nichicon LGU2Z331MELZ datasheet
11-08-2014 LGU2Z391MELY ALUMINUM ELECTROLYTIC CAPACITORS GU Nichicon LGU2Z391MELY datasheet
11-08-2014 LGU2Z391MELZ ALUMINUM ELECTROLYTIC CAPACITORS G Nichicon LGU2Z391MELZ datasheet
11-08-2014 LGU2Z391MELA ALUMINUM ELECTROLYTIC CAPACITORS GU Nichicon LGU2Z391MELA datasheet
11-08-2014 LGU2Z471MELY ALUMINUM ELECTROLYTIC CAPACITORS G Nichicon LGU2Z471MELY datasheet
11-08-2014 LGU2Z471MELZ ALUMINUM ELECTROLYTIC CAPACITORS G Nichicon LGU2Z471MELZ datasheet
11-08-2014 LGU2Z471MELA ALUMINUM ELECTROLYTIC CAPACITORS G Nichicon LGU2Z471MELA datasheet
11-08-2014 LGU2Z471MELB ALUMINUM ELECTROLYTIC CAPACITORS G Nichicon LGU2Z471MELB datasheet
11-08-2014 LGU2Z561MELY ALUMINUM ELECTROLYTIC CAPACITORS GU Nichicon LGU2Z561MELY datasheet
11-08-2014 LGU2Z561MELZ ALUMINUM ELECTROLYTIC CAPACITORS GU Nichicon LGU2Z561MELZ datasheet
11-08-2014 LGU2Z561MELA ALUMINUM ELECTROLYTIC CAPACITORS G Nichicon LGU2Z561MELA datasheet
11-08-2014 LGU2Z561MELB ALUMINUM ELECTROLYTIC CAPACITORS GU Nichicon LGU2Z561MELB datasheet
11-08-2014 LGU2Z681MELZ ALUMINUM ELECTROLYTIC CAPACITORS GU Nichicon LGU2Z681MELZ datasheet
11-08-2014 LGU2Z681MELA ALUMINUM ELECTROLYTIC CAPACITORS GU Nichicon LGU2Z681MELA datasheet
11-08-2014 LGU2Z681MELB ALUMINUM ELECTROLYTIC CAPACITORS GU Nichicon LGU2Z681MELB datasheet
11-08-2014 LGU2Z681MELC ALUMINUM ELECTROLYTIC CAPACITORS GU Nichicon LGU2Z681MELC datasheet
11-08-2014 LGU2Z821MELZ ALUMINUM ELECTROLYTIC CAPACITORS GU Nichicon LGU2Z821MELZ datasheet
11-08-2014 LGU2Z821MELA ALUMINUM ELECTROLYTIC CAPACITORS GU Nichicon LGU2Z821MELA datasheet
11-08-2014 LGU2Z821MELB ALUMINUM ELECTROLYTIC CAPACITORS GU Nichicon LGU2Z821MELB datasheet
11-08-2014 LGU2Z821MELC ALUMINUM ELECTROLYTIC CAPACITORS GU Nichicon LGU2Z821MELC datasheet
11-08-2014 LGU2Z102MELA ALUMINUM ELECTROLYTIC CAPACITORS GU Nichicon LGU2Z102MELA datasheet
11-08-2014 LGU2Z102MELB ALUMINUM ELECTROLYTIC CAPACITORS G Nichicon LGU2Z102MELB datasheet
11-08-2014 LGU2Z102MELC ALUMINUM ELECTROLYTIC CAPACITORS GU Nichicon LGU2Z102MELC datasheet
11-08-2014 LGU2Z122MELA ALUMINUM ELECTROLYTIC CAPACITORS G Nichicon LGU2Z122MELA datasheet
11-08-2014 LGU2Z122MELB ALUMINUM ELECTROLYTIC CAPACITORS G Nichicon LGU2Z122MELB datasheet
11-08-2014 LGU2Z122MELC ALUMINUM ELECTROLYTIC CAPACITORS G Nichicon LGU2Z122MELC datasheet
11-08-2014 LGU2Z152MELB ALUMINUM ELECTROLYTIC CAPACITORS GU Nichicon LGU2Z152MELB datasheet
11-08-2014 LGU2Z152MELC ALUMINUM ELECTROLYTIC CAPACITORS GU Nichicon LGU2Z152MELC datasheet
11-08-2014 LGU2Z182MELC ALUMINUM ELECTROLYTIC CAPACITORS GU Nichicon LGU2Z182MELC datasheet
11-08-2014 LGU2Z222MELC ALUMINUM ELECTROLYTIC CAPACITORS GU Nichicon LGU2Z222MELC datasheet
11-08-2014 LGU2D221MELY ALUMINUM ELECTROLYTIC CAPACITORS G Nichicon LGU2D221MELY datasheet
11-08-2014 LGU2D271MELY ALUMINUM ELECTROLYTIC CAPACITORS GU Nichicon LGU2D271MELY datasheet
11-08-2014 LGU2D271MELZ ALUMINUM ELECTROLYTIC CAPACITORS GU Nichicon LGU2D271MELZ datasheet
11-08-2014 LGU2D331MELY ALUMINUM ELECTROLYTIC CAPACITORS G Nichicon LGU2D331MELY datasheet
11-08-2014 LGU2D331MELZ ALUMINUM ELECTROLYTIC CAPACITORS G Nichicon LGU2D331MELZ datasheet
11-08-2014 LGU2D331MELA ALUMINUM ELECTROLYTIC CAPACITORS G Nichicon LGU2D331MELA datasheet
11-08-2014 LGU2D391MELY ALUMINUM ELECTROLYTIC CAPACITORS GU Nichicon LGU2D391MELY datasheet
11-08-2014 LGU2D391MELZ ALUMINUM ELECTROLYTIC CAPACITORS GU Nichicon LGU2D391MELZ datasheet
11-08-2014 LGU2D391MELA ALUMINUM ELECTROLYTIC CAPACITORS GU Nichicon LGU2D391MELA datasheet
11-08-2014 LGU2D471MELY ALUMINUM ELECTROLYTIC CAPACITORS GU Nichicon LGU2D471MELY datasheet
11-08-2014 LGU2D471MELZ ALUMINUM ELECTROLYTIC CAPACITORS G Nichicon LGU2D471MELZ datasheet
11-08-2014 LGU2D471MELA ALUMINUM ELECTROLYTIC CAPACITORS GU Nichicon LGU2D471MELA datasheet
11-08-2014 LGU2D471MELB ALUMINUM ELECTROLYTIC CAPACITORS GU Nichicon LGU2D471MELB datasheet
11-08-2014 LGU2D561MELY ALUMINUM ELECTROLYTIC CAPACITORS G Nichicon LGU2D561MELY datasheet
11-08-2014 LGU2D561MELZ ALUMINUM ELECTROLYTIC CAPACITORS G Nichicon LGU2D561MELZ datasheet
11-08-2014 LGU2D561MELA ALUMINUM ELECTROLYTIC CAPACITORS G Nichicon LGU2D561MELA datasheet
11-08-2014 LGU2D561MELB ALUMINUM ELECTROLYTIC CAPACITORS G Nichicon LGU2D561MELB datasheet
11-08-2014 LGU2D681MELZ ALUMINUM ELECTROLYTIC CAPACITORS G Nichicon LGU2D681MELZ datasheet
11-08-2014 LGU2D681MELA ALUMINUM ELECTROLYTIC CAPACITORS G Nichicon LGU2D681MELA datasheet
11-08-2014 LGU2D681MELB ALUMINUM ELECTROLYTIC CAPACITORS G Nichicon LGU2D681MELB datasheet
11-08-2014 LGU2D681MELC ALUMINUM ELECTROLYTIC CAPACITORS G Nichicon LGU2D681MELC datasheet
11-08-2014 LGU2D821MELA ALUMINUM ELECTROLYTIC CAPACITORS G Nichicon LGU2D821MELA datasheet
11-08-2014 LGU2D821MELB ALUMINUM ELECTROLYTIC CAPACITORS G Nichicon LGU2D821MELB datasheet
11-08-2014 LGU2D821MELC ALUMINUM ELECTROLYTIC CAPACITORS G Nichicon LGU2D821MELC datasheet
11-08-2014 LGU2D102MELA ALUMINUM ELECTROLYTIC CAPACITORS G Nichicon LGU2D102MELA datasheet
11-08-2014 LGU2D102MELB ALUMINUM ELECTROLYTIC CAPACITORS G Nichicon LGU2D102MELB datasheet
11-08-2014 LGU2D102MELC ALUMINUM ELECTROLYTIC CAPACITORS G Nichicon LGU2D102MELC datasheet
11-08-2014 LGU2D122MELB ALUMINUM ELECTROLYTIC CAPACITORS G Nichicon LGU2D122MELB datasheet
11-08-2014 LGU2D122MELC ALUMINUM ELECTROLYTIC CAPACITORS G Nichicon LGU2D122MELC datasheet
11-08-2014 LGU2D152MELB ALUMINUM ELECTROLYTIC CAPACITORS G Nichicon LGU2D152MELB datasheet
11-08-2014 LGU2D152MELC ALUMINUM ELECTROLYTIC CAPACITORS G Nichicon LGU2D152MELC datasheet
11-08-2014 LGU2D182MELC ALUMINUM ELECTROLYTIC CAPACITORS G Nichicon LGU2D182MELC datasheet
11-08-2014 LGU2D222MELC ALUMINUM ELECTROLYTIC CAPACITORS G Nichicon LGU2D222MELC datasheet
11-08-2014 LGU2P181MELY ALUMINUM ELECTROLYTIC CAPACITORS G Nichicon LGU2P181MELY datasheet
11-08-2014 LGU2P221MELY ALUMINUM ELECTROLYTIC CAPACITORS G Nichicon LGU2P221MELY datasheet
11-08-2014 LGU2P221MELZ ALUMINUM ELECTROLYTIC CAPACITORS G Nichicon LGU2P221MELZ datasheet
11-08-2014 LGU2P271MELY ALUMINUM ELECTROLYTIC CAPACITORS G Nichicon LGU2P271MELY datasheet
11-08-2014 LGU2P271MELZ ALUMINUM ELECTROLYTIC CAPACITORS G Nichicon LGU2P271MELZ datasheet
11-08-2014 LGU2P331MELY ALUMINUM ELECTROLYTIC CAPACITORS G Nichicon LGU2P331MELY datasheet
11-08-2014 LGU2P331MELZ ALUMINUM ELECTROLYTIC CAPACITORS G Nichicon LGU2P331MELZ datasheet
11-08-2014 LGU2P331MELA ALUMINUM ELECTROLYTIC CAPACITORS G Nichicon LGU2P331MELA datasheet
11-08-2014 LGU2P391MELY ALUMINUM ELECTROLYTIC CAPACITORS G Nichicon LGU2P391MELY datasheet
11-08-2014 LGU2P391MELZ ALUMINUM ELECTROLYTIC CAPACITORS G Nichicon LGU2P391MELZ datasheet
11-08-2014 LGU2P391MELA ALUMINUM ELECTROLYTIC CAPACITORS G Nichicon LGU2P391MELA datasheet
11-08-2014 LGU2P471MELY ALUMINUM ELECTROLYTIC CAPACITORS G Nichicon LGU2P471MELY datasheet
11-08-2014 LGU2P471MELZ ALUMINUM ELECTROLYTIC CAPACITORS G Nichicon LGU2P471MELZ datasheet
11-08-2014 LGU2P471MELA ALUMINUM ELECTROLYTIC CAPACITORS G Nichicon LGU2P471MELA datasheet
11-08-2014 LGU2P471MELB ALUMINUM ELECTROLYTIC CAPACITORS G Nichicon LGU2P471MELB datasheet
11-08-2014 LGU2P561MELZ ALUMINUM ELECTROLYTIC CAPACITORS G Nichicon LGU2P561MELZ datasheet
11-08-2014 LGU2P561MELA ALUMINUM ELECTROLYTIC CAPACITORS G Nichicon LGU2P561MELA datasheet
11-08-2014 LGU2P561MELB ALUMINUM ELECTROLYTIC CAPACITORS G Nichicon LGU2P561MELB datasheet
11-08-2014 LGU2P681MELA ALUMINUM ELECTROLYTIC CAPACITORS G Nichicon LGU2P681MELA datasheet
11-08-2014 LGU2P681MELB ALUMINUM ELECTROLYTIC CAPACITORS G Nichicon LGU2P681MELB datasheet
11-08-2014 LGU2P681MELC ALUMINUM ELECTROLYTIC CAPACITORS G Nichicon LGU2P681MELC datasheet
11-08-2014 LGU2P821MELA ALUMINUM ELECTROLYTIC CAPACITORS G Nichicon LGU2P821MELA datasheet
11-08-2014 LGU2P821MELB ALUMINUM ELECTROLYTIC CAPACITORS G Nichicon LGU2P821MELB datasheet
11-08-2014 LGU2P821MELC ALUMINUM ELECTROLYTIC CAPACITORS G Nichicon LGU2P821MELC datasheet
11-08-2014 LGU2P102MELB ALUMINUM ELECTROLYTIC CAPACITORS G Nichicon LGU2P102MELB datasheet
11-08-2014 LGU2P102MELC ALUMINUM ELECTROLYTIC CAPACITORS G Nichicon LGU2P102MELC datasheet
11-08-2014 LGU2P122MELB ALUMINUM ELECTROLYTIC CAPACITORS G Nichicon LGU2P122MELB datasheet
11-08-2014 LGU2P122MELC ALUMINUM ELECTROLYTIC CAPACITORS G Nichicon LGU2P122MELC datasheet
11-08-2014 LGU2P152MELC ALUMINUM ELECTROLYTIC CAPACITORS G Nichicon LGU2P152MELC datasheet
11-08-2014 LGU2E151MELY ALUMINUM ELECTROLYTIC CAPACITORS G Nichicon LGU2E151MELY datasheet
11-08-2014 LGU2E181MELY ALUMINUM ELECTROLYTIC CAPACITORS G Nichicon LGU2E181MELY datasheet
11-08-2014 LGU2E221MELY ALUMINUM ELECTROLYTIC CAPACITORS G Nichicon LGU2E221MELY datasheet
11-08-2014 LGU2E221MELZ ALUMINUM ELECTROLYTIC CAPACITORS G Nichicon LGU2E221MELZ datasheet
11-08-2014 LGU2E271MELY ALUMINUM ELECTROLYTIC CAPACITORS G Nichicon LGU2E271MELY datasheet
11-08-2014 LGU2E271MELZ ALUMINUM ELECTROLYTIC CAPACITORS G Nichicon LGU2E271MELZ datasheet
11-08-2014 LGU2E271MELA ALUMINUM ELECTROLYTIC CAPACITORS G Nichicon LGU2E271MELA datasheet
11-08-2014 LGU2E331MELY ALUMINUM ELECTROLYTIC CAPACITORS G Nichicon LGU2E331MELY datasheet
11-08-2014 LGU2E331MELZ ALUMINUM ELECTROLYTIC CAPACITORS G Nichicon LGU2E331MELZ datasheet
11-08-2014 LGU2E331MELA ALUMINUM ELECTROLYTIC CAPACITORS G Nichicon LGU2E331MELA datasheet
11-08-2014 LGU2E331MELB ALUMINUM ELECTROLYTIC CAPACITORS G Nichicon LGU2E331MELB datasheet
11-08-2014 LGU2E391MELY ALUMINUM ELECTROLYTIC CAPACITORS G Nichicon LGU2E391MELY datasheet
11-08-2014 LGU2E391MELZ ALUMINUM ELECTROLYTIC CAPACITORS G Nichicon LGU2E391MELZ datasheet
11-08-2014 LGU2E391MELA ALUMINUM ELECTROLYTIC CAPACITORS G Nichicon LGU2E391MELA datasheet
11-08-2014 LGU2E391MELB ALUMINUM ELECTROLYTIC CAPACITORS G Nichicon LGU2E391MELB datasheet
11-08-2014 LGU2E471MELZ ALUMINUM ELECTROLYTIC CAPACITORS G Nichicon LGU2E471MELZ datasheet
11-08-2014 LGU2E471MELA ALUMINUM ELECTROLYTIC CAPACITORS G Nichicon LGU2E471MELA datasheet
11-08-2014 LGU2E471MELB ALUMINUM ELECTROLYTIC CAPACITORS G Nichicon LGU2E471MELB datasheet
11-08-2014 LGU2E471MELC ALUMINUM ELECTROLYTIC CAPACITORS G Nichicon LGU2E471MELC datasheet
11-08-2014 LGU2E561MELA ALUMINUM ELECTROLYTIC CAPACITORS G Nichicon LGU2E561MELA datasheet
11-08-2014 LGU2E561MELB ALUMINUM ELECTROLYTIC CAPACITORS G Nichicon LGU2E561MELB datasheet
11-08-2014 LGU2E561MELC ALUMINUM ELECTROLYTIC CAPACITORS G Nichicon LGU2E561MELC datasheet
11-08-2014 LGU2E681MELA ALUMINUM ELECTROLYTIC CAPACITORS G Nichicon LGU2E681MELA datasheet
11-08-2014 LGU2E681MELB ALUMINUM ELECTROLYTIC CAPACITORS G Nichicon LGU2E681MELB datasheet
11-08-2014 LGU2E681MELC ALUMINUM ELECTROLYTIC CAPACITORS G Nichicon LGU2E681MELC datasheet
11-08-2014 LGU2E821MELB ALUMINUM ELECTROLYTIC CAPACITORS G Nichicon LGU2E821MELB datasheet
11-08-2014 LGU2E821MELC ALUMINUM ELECTROLYTIC CAPACITORS G Nichicon LGU2E821MELC datasheet
11-08-2014 LGU2E102MELB ALUMINUM ELECTROLYTIC CAPACITORS G Nichicon LGU2E102MELB datasheet
11-08-2014 LGU2E102MELC ALUMINUM ELECTROLYTIC CAPACITORS G Nichicon LGU2E102MELC datasheet
11-08-2014 LGU2E122MELC ALUMINUM ELECTROLYTIC CAPACITORS G Nichicon LGU2E122MELC datasheet
11-08-2014 LGU2E152MELC ALUMINUM ELECTROLYTIC CAPACITORS G Nichicon LGU2E152MELC datasheet
11-08-2014 LGU2F820MELY ALUMINUM ELECTROLYTIC CAPACITORS G Nichicon LGU2F820MELY datasheet
11-08-2014 LGU2F101MELY ALUMINUM ELECTROLYTIC CAPACITORS G Nichicon LGU2F101MELY datasheet
11-08-2014 LGU2F121MELY ALUMINUM ELECTROLYTIC CAPACITORS G Nichicon LGU2F121MELY datasheet
11-08-2014 LGU2F121MELZ ALUMINUM ELECTROLYTIC CAPACITORS G Nichicon LGU2F121MELZ datasheet
11-08-2014 LGU2F151MELY ALUMINUM ELECTROLYTIC CAPACITORS G Nichicon LGU2F151MELY datasheet
11-08-2014 LGU2F151MELZ ALUMINUM ELECTROLYTIC CAPACITORS G Nichicon LGU2F151MELZ datasheet
11-08-2014 LGU2F151MELA ALUMINUM ELECTROLYTIC CAPACITORS G Nichicon LGU2F151MELA datasheet
11-08-2014 LGU2F181MELY ALUMINUM ELECTROLYTIC CAPACITORS G Nichicon LGU2F181MELY datasheet
11-08-2014 LGU2F181MELZ ALUMINUM ELECTROLYTIC CAPACITORS G Nichicon LGU2F181MELZ datasheet
11-08-2014 LGU2F181MELA ALUMINUM ELECTROLYTIC CAPACITORS G Nichicon LGU2F181MELA datasheet
11-08-2014 LGU2F221MELY ALUMINUM ELECTROLYTIC CAPACITORS G Nichicon LGU2F221MELY datasheet
11-08-2014 LGU2F221MELZ ALUMINUM ELECTROLYTIC CAPACITORS G Nichicon LGU2F221MELZ datasheet
11-08-2014 LGU2F221MELA ALUMINUM ELECTROLYTIC CAPACITORS G Nichicon LGU2F221MELA datasheet
11-08-2014 LGU2F221MELB ALUMINUM ELECTROLYTIC CAPACITORS G Nichicon LGU2F221MELB datasheet
11-08-2014 LGU2F271MELZ ALUMINUM ELECTROLYTIC CAPACITORS G Nichicon LGU2F271MELZ datasheet
11-08-2014 LGU2F271MELA ALUMINUM ELECTROLYTIC CAPACITORS G Nichicon LGU2F271MELA datasheet
11-08-2014 LGU2F271MELB ALUMINUM ELECTROLYTIC CAPACITORS G Nichicon LGU2F271MELB datasheet
11-08-2014 LGU2F331MELZ ALUMINUM ELECTROLYTIC CAPACITORS G Nichicon LGU2F331MELZ datasheet
11-08-2014 LGU2F331MELA ALUMINUM ELECTROLYTIC CAPACITORS G Nichicon LGU2F331MELA datasheet
11-08-2014 LGU2F331MELB ALUMINUM ELECTROLYTIC CAPACITORS G Nichicon LGU2F331MELB datasheet
11-08-2014 LGU2F331MELC ALUMINUM ELECTROLYTIC CAPACITORS G Nichicon LGU2F331MELC datasheet
11-08-2014 LGU2F391MELA ALUMINUM ELECTROLYTIC CAPACITORS G Nichicon LGU2F391MELA datasheet
11-08-2014 LGU2F391MELB ALUMINUM ELECTROLYTIC CAPACITORS G Nichicon LGU2F391MELB datasheet
11-08-2014 LGU2F391MELC ALUMINUM ELECTROLYTIC CAPACITORS G Nichicon LGU2F391MELC datasheet
11-08-2014 LGU2F471MELA ALUMINUM ELECTROLYTIC CAPACITORS G Nichicon LGU2F471MELA datasheet
11-08-2014 LGU2F471MELB ALUMINUM ELECTROLYTIC CAPACITORS G Nichicon LGU2F471MELB datasheet
11-08-2014 LGU2F471MELC ALUMINUM ELECTROLYTIC CAPACITORS G Nichicon LGU2F471MELC datasheet
11-08-2014 LGU2F561MELB ALUMINUM ELECTROLYTIC CAPACITORS G Nichicon LGU2F561MELB datasheet
11-08-2014 LGU2F561MELC ALUMINUM ELECTROLYTIC CAPACITORS G Nichicon LGU2F561MELC datasheet
11-08-2014 LGU2F681MELB ALUMINUM ELECTROLYTIC CAPACITORS G Nichicon LGU2F681MELB datasheet
11-08-2014 LGU2F681MELC ALUMINUM ELECTROLYTIC CAPACITORS G Nichicon LGU2F681MELC datasheet
11-08-2014 LGU2F821MELC ALUMINUM ELECTROLYTIC CAPACITORS G Nichicon LGU2F821MELC datasheet
11-08-2014 LGU2G560MELY ALUMINUM ELECTROLYTIC CAPACITORS G Nichicon LGU2G560MELY datasheet
11-08-2014 LGU2G680MELY ALUMINUM ELECTROLYTIC CAPACITORS G Nichicon LGU2G680MELY datasheet
11-08-2014 LGU2G820MELY ALUMINUM ELECTROLYTIC CAPACITORS G Nichicon LGU2G820MELY datasheet
11-08-2014 LGU2G820MELZ ALUMINUM ELECTROLYTIC CAPACITORS G Nichicon LGU2G820MELZ datasheet
11-08-2014 LGU2G101MELY ALUMINUM ELECTROLYTIC CAPACITORS G Nichicon LGU2G101MELY datasheet
11-08-2014 LGU2G101MELZ ALUMINUM ELECTROLYTIC CAPACITORS G Nichicon LGU2G101MELZ datasheet
11-08-2014 LGU2G101MELA ALUMINUM ELECTROLYTIC CAPACITORS G Nichicon LGU2G101MELA datasheet
11-08-2014 LGU2G121MELY ALUMINUM ELECTROLYTIC CAPACITORS G Nichicon LGU2G121MELY datasheet
11-08-2014 LGU2G121MELZ ALUMINUM ELECTROLYTIC CAPACITORS G Nichicon LGU2G121MELZ datasheet
11-08-2014 LGU2G121MELA ALUMINUM ELECTROLYTIC CAPACITORS G Nichicon LGU2G121MELA datasheet
11-08-2014 LGU2G151MELY ALUMINUM ELECTROLYTIC CAPACITORS G Nichicon LGU2G151MELY datasheet
11-08-2014 LGU2G151MELZ ALUMINUM ELECTROLYTIC CAPACITORS G Nichicon LGU2G151MELZ datasheet
11-08-2014 LGU2G151MELA ALUMINUM ELECTROLYTIC CAPACITORS G Nichicon LGU2G151MELA datasheet
11-08-2014 LGU2G151MELB ALUMINUM ELECTROLYTIC CAPACITORS G Nichicon LGU2G151MELB datasheet
11-08-2014 LGU2G181MELZ ALUMINUM ELECTROLYTIC CAPACITORS G Nichicon LGU2G181MELZ datasheet
11-08-2014 LGU2G181MELA ALUMINUM ELECTROLYTIC CAPACITORS G Nichicon LGU2G181MELA datasheet
11-08-2014 LGU2G181MELB ALUMINUM ELECTROLYTIC CAPACITORS G Nichicon LGU2G181MELB datasheet
11-08-2014 LGU2G181MELC ALUMINUM ELECTROLYTIC CAPACITORS G Nichicon LGU2G181MELC datasheet
11-08-2014 LGU2G221MELZ ALUMINUM ELECTROLYTIC CAPACITORS G Nichicon LGU2G221MELZ datasheet
11-08-2014 LGU2G221MELA ALUMINUM ELECTROLYTIC CAPACITORS G Nichicon LGU2G221MELA datasheet
11-08-2014 LGU2G221MELB ALUMINUM ELECTROLYTIC CAPACITORS G Nichicon LGU2G221MELB datasheet
11-08-2014 LGU2G221MELC ALUMINUM ELECTROLYTIC CAPACITORS G Nichicon LGU2G221MELC datasheet
11-08-2014 LGU2G271MELA ALUMINUM ELECTROLYTIC CAPACITORS G Nichicon LGU2G271MELA datasheet
11-08-2014 LGU2G271MELB ALUMINUM ELECTROLYTIC CAPACITORS G Nichicon LGU2G271MELB datasheet
11-08-2014 LGU2G271MELC ALUMINUM ELECTROLYTIC CAPACITORS G Nichicon LGU2G271MELC datasheet
11-08-2014 LGU2G331MELA ALUMINUM ELECTROLYTIC CAPACITORS G Nichicon LGU2G331MELA datasheet
11-08-2014 LGU2G331MELB ALUMINUM ELECTROLYTIC CAPACITORS G Nichicon LGU2G331MELB datasheet
11-08-2014 LGU2G331MELC ALUMINUM ELECTROLYTIC CAPACITORS G Nichicon LGU2G331MELC datasheet
11-08-2014 LGU2G391MELB ALUMINUM ELECTROLYTIC CAPACITORS G Nichicon LGU2G391MELB datasheet
11-08-2014 LGU2G391MELC ALUMINUM ELECTROLYTIC CAPACITORS G Nichicon LGU2G391MELC datasheet
11-08-2014 LGU2G471MELB ALUMINUM ELECTROLYTIC CAPACITORS G Nichicon LGU2G471MELB datasheet
11-08-2014 LGU2G471MELC ALUMINUM ELECTROLYTIC CAPACITORS G Nichicon LGU2G471MELC datasheet
11-08-2014 LGU2G561MELC ALUMINUM ELECTROLYTIC CAPACITORS G Nichicon LGU2G561MELC datasheet
11-08-2014 LGUW6560MELY ALUMINUM ELECTROLYTIC CAPACITORS G Nichicon LGUW6560MELY datasheet
11-08-2014 LGUW6680MELY ALUMINUM ELECTROLYTIC CAPACITORS G Nichicon LGUW6680MELY datasheet
11-08-2014 LGUW6820MELY ALUMINUM ELECTROLYTIC CAPACITORS G Nichicon LGUW6820MELY datasheet
11-08-2014 LGUW6820MELZ ALUMINUM ELECTROLYTIC CAPACITORS G Nichicon LGUW6820MELZ datasheet
11-08-2014 LGUW6101MELY ALUMINUM ELECTROLYTIC CAPACITORS G Nichicon LGUW6101MELY datasheet
11-08-2014 LGUW6101MELZ ALUMINUM ELECTROLYTIC CAPACITORS G Nichicon LGUW6101MELZ datasheet
11-08-2014 LGUW6101MELA ALUMINUM ELECTROLYTIC CAPACITORS G Nichicon LGUW6101MELA datasheet
11-08-2014 LGUW6121MELY ALUMINUM ELECTROLYTIC CAPACITORS G Nichicon LGUW6121MELY datasheet
11-08-2014 LGUW6121MELZ ALUMINUM ELECTROLYTIC CAPACITORS G Nichicon LGUW6121MELZ datasheet
11-08-2014 LGUW6121MELA ALUMINUM ELECTROLYTIC CAPACITORS G Nichicon LGUW6121MELA datasheet
11-08-2014 LGUW6151MELY ALUMINUM ELECTROLYTIC CAPACITORS G Nichicon LGUW6151MELY datasheet
11-08-2014 LGUW6151MELZ ALUMINUM ELECTROLYTIC CAPACITORS G Nichicon LGUW6151MELZ datasheet
11-08-2014 LGUW6151MELA ALUMINUM ELECTROLYTIC CAPACITORS G Nichicon LGUW6151MELA datasheet
11-08-2014 LGUW6151MELB ALUMINUM ELECTROLYTIC CAPACITORS G Nichicon LGUW6151MELB datasheet
11-08-2014 LGUW6181MELZ ALUMINUM ELECTROLYTIC CAPACITORS G Nichicon LGUW6181MELZ datasheet
11-08-2014 LGUW6181MELA ALUMINUM ELECTROLYTIC CAPACITORS G Nichicon LGUW6181MELA datasheet
11-08-2014 LGUW6181MELB ALUMINUM ELECTROLYTIC CAPACITORS G Nichicon LGUW6181MELB datasheet
11-08-2014 LGUW6221MELZ ALUMINUM ELECTROLYTIC CAPACITORS G Nichicon LGUW6221MELZ datasheet
11-08-2014 LGUW6221MELA ALUMINUM ELECTROLYTIC CAPACITORS G Nichicon LGUW6221MELA datasheet
11-08-2014 LGUW6221MELB ALUMINUM ELECTROLYTIC CAPACITORS G Nichicon LGUW6221MELB datasheet
11-08-2014 LGUW6221MELC ALUMINUM ELECTROLYTIC CAPACITORS G Nichicon LGUW6221MELC datasheet
11-08-2014 LGUW6271MELA ALUMINUM ELECTROLYTIC CAPACITORS G Nichicon LGUW6271MELA datasheet
11-08-2014 LGUW6271MELB ALUMINUM ELECTROLYTIC CAPACITORS G Nichicon LGUW6271MELB datasheet
11-08-2014 LGUW6271MELC ALUMINUM ELECTROLYTIC CAPACITORS G Nichicon LGUW6271MELC datasheet
11-08-2014 LGUW6331MELB ALUMINUM ELECTROLYTIC CAPACITORS G Nichicon LGUW6331MELB datasheet
11-08-2014 LGUW6331MELC ALUMINUM ELECTROLYTIC CAPACITORS G Nichicon LGUW6331MELC datasheet
11-08-2014 LGUW6391MELB ALUMINUM ELECTROLYTIC CAPACITORS G Nichicon LGUW6391MELB datasheet
11-08-2014 LGUW6391MELC ALUMINUM ELECTROLYTIC CAPACITORS G Nichicon LGUW6391MELC datasheet
11-08-2014 LGUW6471MELC ALUMINUM ELECTROLYTIC CAPACITORS G Nichicon LGUW6471MELC datasheet
11-08-2014 LGUW6561MELC ALUMINUM ELECTROLYTIC CAPACITORS G Nichicon LGUW6561MELC datasheet
11-08-2014 LGU2W470MELY ALUMINUM ELECTROLYTIC CAPACITORS G Nichicon LGU2W470MELY datasheet
11-08-2014 LGU2W560MELY ALUMINUM ELECTROLYTIC CAPACITORS G Nichicon LGU2W560MELY datasheet
11-08-2014 LGU2W680MELY ALUMINUM ELECTROLYTIC CAPACITORS G Nichicon LGU2W680MELY datasheet
11-08-2014 LGU2W820MELY ALUMINUM ELECTROLYTIC CAPACITORS G Nichicon LGU2W820MELY datasheet
11-08-2014 LGU2W820MELZ ALUMINUM ELECTROLYTIC CAPACITORS G Nichicon LGU2W820MELZ datasheet
11-08-2014 LGU2W820MELA ALUMINUM ELECTROLYTIC CAPACITORS G Nichicon LGU2W820MELA datasheet
11-08-2014 LGU2W101MELY ALUMINUM ELECTROLYTIC CAPACITORS G Nichicon LGU2W101MELY datasheet
11-08-2014 LGU2W101MELZ ALUMINUM ELECTROLYTIC CAPACITORS G Nichicon LGU2W101MELZ datasheet
11-08-2014 LGU2W101MELA ALUMINUM ELECTROLYTIC CAPACITORS G Nichicon LGU2W101MELA datasheet
11-08-2014 LGU2W121MELY ALUMINUM ELECTROLYTIC CAPACITORS G Nichicon LGU2W121MELY datasheet
11-08-2014 LGU2W121MELZ ALUMINUM ELECTROLYTIC CAPACITORS G Nichicon LGU2W121MELZ datasheet
11-08-2014 LGU2W121MELA ALUMINUM ELECTROLYTIC CAPACITORS G Nichicon LGU2W121MELA datasheet
11-08-2014 LGU2W121MELB ALUMINUM ELECTROLYTIC CAPACITORS G Nichicon LGU2W121MELB datasheet
11-08-2014 LGU2W151MELZ ALUMINUM ELECTROLYTIC CAPACITORS G Nichicon LGU2W151MELZ datasheet
11-08-2014 LGU2W151MELA ALUMINUM ELECTROLYTIC CAPACITORS G Nichicon LGU2W151MELA datasheet
11-08-2014 LGU2W151MELB ALUMINUM ELECTROLYTIC CAPACITORS G Nichicon LGU2W151MELB datasheet
11-08-2014 LGU2W181MELZ ALUMINUM ELECTROLYTIC CAPACITORS G Nichicon LGU2W181MELZ datasheet
11-08-2014 LGU2W181MELA ALUMINUM ELECTROLYTIC CAPACITORS G Nichicon LGU2W181MELA datasheet
11-08-2014 LGU2W181MELB ALUMINUM ELECTROLYTIC CAPACITORS G Nichicon LGU2W181MELB datasheet
11-08-2014 LGU2W221MELA ALUMINUM ELECTROLYTIC CAPACITORS G Nichicon LGU2W221MELA datasheet
11-08-2014 LGU2W221MELB ALUMINUM ELECTROLYTIC CAPACITORS G Nichicon LGU2W221MELB datasheet
11-08-2014 LGU2W221MELC ALUMINUM ELECTROLYTIC CAPACITORS G Nichicon LGU2W221MELC datasheet
11-08-2014 LGU2W271MELB ALUMINUM ELECTROLYTIC CAPACITORS G Nichicon LGU2W271MELB datasheet
11-08-2014 LGU2W271MELC ALUMINUM ELECTROLYTIC CAPACITORS G Nichicon LGU2W271MELC datasheet
11-08-2014 LGU2W331MELB ALUMINUM ELECTROLYTIC CAPACITORS G Nichicon LGU2W331MELB datasheet
11-08-2014 LGU2W331MELC ALUMINUM ELECTROLYTIC CAPACITORS G Nichicon LGU2W331MELC datasheet
11-08-2014 LGU2W391MELC ALUMINUM ELECTROLYTIC CAPACITORS G Nichicon LGU2W391MELC datasheet
11-08-2014 LGU2W471MELC ALUMINUM ELECTROLYTIC CAPACITORS G Nichicon LGU2W471MELC datasheet
11-08-2014 PC2SD11NTZAF PC2SD11NTZ Series PC2SD11NTZ Serie Sharp PC2SD11NTZAF datasheet
11-08-2014 PC2SD11NXZAF PC2SD11NTZ Series PC2SD11NTZ Serie Sharp PC2SD11NXZAF datasheet
11-08-2014 PC2SD11NVZAF PC2SD11NTZ Series PC2SD11NTZ Serie Sharp PC2SD11NVZAF datasheet
11-08-2014 PC2SD11NWZAF PC2SD11NTZ Series PC2SD11NTZ Serie Sharp PC2SD11NWZAF datasheet
11-08-2014 PC2SD11NXPAF PC2SD11NTZ Series PC2SD11NTZ Serie Sharp PC2SD11NXPAF datasheet
11-08-2014 PC2SD11NWPAF PC2SD11NTZ Series PC2SD11NTZ Serie Sharp PC2SD11NWPAF datasheet
11-08-2014 PC2SD11NTZA PC2SD11NTZ Series PC2SD11NTZ Serie Sharp PC2SD11NTZA datasheet
11-08-2014 PC2SD11NVZA PC2SD11NTZ Series PC2SD11NTZ Serie Sharp PC2SD11NVZA datasheet
11-08-2014 PC2SD11NXZA PC2SD11NTZ Series PC2SD11NTZ Serie Sharp PC2SD11NXZA datasheet
11-08-2014 PC2SD11NWZA PC2SD11NTZ Series PC2SD11NTZ Serie Sharp PC2SD11NWZA datasheet
11-08-2014 PC2SD11NXPA PC2SD11NTZ Series PC2SD11NTZ Serie Sharp PC2SD11NXPA datasheet
11-08-2014 PC2SD11NWPA PC2SD11NTZ Series PC2SD11NTZ Serie Sharp PC2SD11NWPA datasheet
11-08-2014 PC3H410NIP0F PC3H41xNIP0F Series PC3H41xNIP0F S Sharp PC3H410NIP0F datasheet
11-08-2014 PC3H411NIP0F PC3H41xNIP0F Series PC3H41xNIP0F S Sharp PC3H411NIP0F datasheet
11-08-2014 PC3SF11YVZ PC3SF11YVZ Series PC3SF11YVZ Serie Sharp PC3SF11YVZ datasheet
11-08-2014 PC3SF11YTZBF PC3SF11YVZ Series PC3SF11YVZ Serie Sharp PC3SF11YTZBF datasheet
11-08-2014 PC3SF11YTZAF PC3SF11YVZ Series PC3SF11YVZ Serie Sharp PC3SF11YTZAF datasheet
11-08-2014 PC3SF11YXZBF PC3SF11YVZ Series PC3SF11YVZ Serie Sharp PC3SF11YXZBF datasheet
11-08-2014 PC3SF11YXZAF PC3SF11YVZ Series PC3SF11YVZ Serie Sharp PC3SF11YXZAF datasheet
11-08-2014 PC3SF11YVZBF PC3SF11YVZ Series PC3SF11YVZ Serie Sharp PC3SF11YVZBF datasheet
11-08-2014 PC3SF11YVZAF PC3SF11YVZ Series PC3SF11YVZ Serie Sharp PC3SF11YVZAF datasheet
11-08-2014 PC3SF11YWZBF PC3SF11YVZ Series PC3SF11YVZ Serie Sharp PC3SF11YWZBF datasheet
11-08-2014 PC3SF11YWZAF PC3SF11YVZ Series PC3SF11YVZ Serie Sharp PC3SF11YWZAF datasheet
11-08-2014 PC3SF11YXPBF PC3SF11YVZ Series PC3SF11YVZ Serie Sharp PC3SF11YXPBF datasheet
11-08-2014 PC3SF11YXPAF PC3SF11YVZ Series PC3SF11YVZ Serie Sharp PC3SF11YXPAF datasheet
11-08-2014 PC3SF11YWPBF PC3SF11YVZ Series PC3SF11YVZ Serie Sharp PC3SF11YWPBF datasheet
11-08-2014 PC3SF11YWPAF PC3SF11YVZ Series PC3SF11YVZ Serie Sharp PC3SF11YWPAF datasheet
11-08-2014 PC3SF11YTZB PC3SF11YVZ Series PC3SF11YVZ Serie Sharp PC3SF11YTZB datasheet
11-08-2014 PC3SF11YTZA PC3SF11YVZ Series PC3SF11YVZ Serie Sharp PC3SF11YTZA datasheet
11-08-2014 PC3SF11YXZB PC3SF11YVZ Series PC3SF11YVZ Serie Sharp PC3SF11YXZB datasheet
11-08-2014 PC3SF11YXZA PC3SF11YVZ Series PC3SF11YVZ Serie Sharp PC3SF11YXZA datasheet
11-08-2014 PC3SF11YVZB PC3SF11YVZ Series PC3SF11YVZ Serie Sharp PC3SF11YVZB datasheet
11-08-2014 PC3SF11YVZA PC3SF11YVZ Series PC3SF11YVZ Serie Sharp PC3SF11YVZA datasheet
11-08-2014 PC3SF11YWZB PC3SF11YVZ Series PC3SF11YVZ Serie Sharp PC3SF11YWZB datasheet
11-08-2014 PC3SF11YWZA PC3SF11YVZ Series PC3SF11YVZ Serie Sharp PC3SF11YWZA datasheet
11-08-2014 PC3SF11YXPB PC3SF11YVZ Series PC3SF11YVZ Serie Sharp PC3SF11YXPB datasheet
11-08-2014 PC3SF11YXPA PC3SF11YVZ Series PC3SF11YVZ Serie Sharp PC3SF11YXPA datasheet
11-08-2014 PC3SF11YWPB PC3SF11YVZ Series PC3SF11YVZ Serie Sharp PC3SF11YWPB datasheet
11-08-2014 PC3SF11YWPA PC3SF11YVZ Series PC3SF11YVZ Serie Sharp PC3SF11YWPA datasheet
11-08-2014 PC81710NSZ0F PC8171xNSZ0F Series PC8171xNSZ0F S Sharp PC81710NSZ0F datasheet
11-08-2014 PC81711NSZ0F PC8171xNSZ0F Series PC8171xNSZ0F S Sharp PC81711NSZ0F datasheet
11-08-2014 PC81712NSZ0F PC8171xNSZ0F Series PC8171xNSZ0F S Sharp PC81712NSZ0F datasheet
11-08-2014 PC81713NSZ0F PC8171xNSZ0F Series PC8171xNSZ0F S Sharp PC81713NSZ0F datasheet
11-08-2014 PC81715NSZ0F PC8171xNSZ0F Series PC8171xNSZ0F S Sharp PC81715NSZ0F datasheet
11-08-2014 PC81716NSZ0F PC8171xNSZ0F Series PC8171xNSZ0F S Sharp PC81716NSZ0F datasheet
11-08-2014 PC81718NSZ0F PC8171xNSZ0F Series PC8171xNSZ0F S Sharp PC81718NSZ0F datasheet
11-08-2014 PC81710NIP0F PC8171xNSZ0F Series PC8171xNSZ0F S Sharp PC81710NIP0F datasheet
11-08-2014 PC81711NIP0F PC8171xNSZ0F Series PC8171xNSZ0F S Sharp PC81711NIP0F datasheet
11-08-2014 PC81712NIP0F PC8171xNSZ0F Series PC8171xNSZ0F S Sharp PC81712NIP0F datasheet
11-08-2014 PC81713NIP0F PC8171xNSZ0F Series PC8171xNSZ0F S Sharp PC81713NIP0F datasheet
11-08-2014 PC81715NIP0F PC8171xNSZ0F Series PC8171xNSZ0F S Sharp PC81715NIP0F datasheet
11-08-2014 PC81716NIP0F PC8171xNSZ0F Series PC8171xNSZ0F S Sharp PC81716NIP0F datasheet
11-08-2014 PC81718NIP0F PC8171xNSZ0F Series PC8171xNSZ0F S Sharp PC81718NIP0F datasheet
11-08-2014 PC957L0NSZ0F PC957L0NSZ0F Series PC957L0NSZ0F S Sharp PC957L0NSZ0F datasheet
11-08-2014 PC957L0YSZ0F PC957L0NSZ0F Series PC957L0NSZ0F S Sharp PC957L0YSZ0F datasheet
11-08-2014 PC957L0NIP0F PC957L0NSZ0F Series PC957L0NSZ0F S Sharp PC957L0NIP0F datasheet
11-08-2014 PC957L0YIP0F PC957L0NSZ0F Series PC957L0NSZ0F S Sharp PC957L0YIP0F datasheet
11-08-2014 A885 SavantIC Semiconductor www.DataShee SavantIC A885 datasheet
11-08-2014 SM4364NAKP SM4364NAKP ® N-Channel Enhanceme Sinopower SM4364NAKP datasheet
11-08-2014 H30T90 Soft Switching Series IHW30N90T q Infineon Technologies H30T90 datasheet

10-2018    9-2018    8-2018    7-2018    6-2018    5-2018    4-2018    3-2018    2-2018    1-2018
12-2017    11-2017    10-2017    9-2017    8-2017    7-2017    6-2017    5-2017    4-2017    3-2017    2-2017    1-2017
12-2016    11-2016    10-2016    9-2016    8-2016    7-2016    6-2016    5-2016    4-2016    3-2016    2-2016    1-2016
12-2015    11-2015    10-2015    9-2015    8-2015    7-2015    6-2015    5-2015    4-2015    3-2015    2-2015    1-2015
12-2014    11-2014    10-2014    9-2014    8-2014    7-2014    6-2014    5-2014    4-2014    3-2014    2-2014    1-2014
12-2013    11-2013    10-2013    9-2013    8-2013    7-2013    6-2013    5-2013    4-2013    3-2013    2-2013    1-2013
12-2012    11-2012    10-2012    9-2012    8-2012    7-2012    6-2012    5-2012    4-2012    3-2012    2-2012    1-2012
12-2011    11-2011    10-2011    9-2011    8-2011    7-2011    6-2011    5-2011    4-2011    3-2011    2-2011    1-2011
12-2010    11-2010    10-2010    9-2010    8-2010    7-2010    6-2010    5-2010    4-2010    3-2010    2-2010    1-2010


31  30  29  28  27  26  25  24  23  22  21  20  19  18  17  16  15  14  13  12  11  10  09  08  07  06  05  04  03  02  01


The site has been moved : DatasheetsPDF.com
Since 2005 - HOME - Link US - All - Privacy Policy & Contact Us -